<?xml version="1.0" encoding="UTF-8" standalone="no" ?>
<gpx xmlns="http://www.topografix.com/GPX/1/1" xmlns:xsi="http://www.w3.org/2001/XMLSchema-instance" xsi:schemaLocation="http://www.topografix.com/GPX/1/1 http://www.topografix.com/GPX/1/1/gpx.xsd" version="1.1" creator="VisuGPX - https://www.visugpx.com">
  <metadata>
    <name>De la Trouée à la Mare</name>
    <desc><![CDATA[Petite rando aux paysages variés et au passé historique]]></desc>
  </metadata>
  <trk>
    <name><![CDATA[JUIL-31-16 11:38:02]]></name>
    <trkseg>
      <trkpt lat="50.38826" lon="3.42375">
        <ele>30.9</ele>
        <time>2016-07-31T06:52:49Z</time>
      </trkpt>
      <trkpt lat="50.3883" lon="3.42376">
        <ele>31.86</ele>
        <time>2016-07-31T06:59:34Z</time>
      </trkpt>
      <trkpt lat="50.38824" lon="3.42387">
        <ele>32.34</ele>
        <time>2016-07-31T07:01:30Z</time>
      </trkpt>
      <trkpt lat="50.38817" lon="3.42398">
        <ele>32.34</ele>
        <time>2016-07-31T07:01:40Z</time>
      </trkpt>
      <trkpt lat="50.38812" lon="3.42411">
        <ele>31.86</ele>
        <time>2016-07-31T07:01:48Z</time>
      </trkpt>
      <trkpt lat="50.38803" lon="3.4242">
        <ele>31.86</ele>
        <time>2016-07-31T07:01:57Z</time>
      </trkpt>
      <trkpt lat="50.38794" lon="3.42423">
        <ele>31.86</ele>
        <time>2016-07-31T07:02:05Z</time>
      </trkpt>
      <trkpt lat="50.3879" lon="3.42408">
        <ele>32.34</ele>
        <time>2016-07-31T07:02:14Z</time>
      </trkpt>
      <trkpt lat="50.38788" lon="3.42393">
        <ele>31.86</ele>
        <time>2016-07-31T07:02:21Z</time>
      </trkpt>
      <trkpt lat="50.38786" lon="3.42378">
        <ele>31.86</ele>
        <time>2016-07-31T07:02:29Z</time>
      </trkpt>
      <trkpt lat="50.38779" lon="3.42367">
        <ele>31.86</ele>
        <time>2016-07-31T07:02:37Z</time>
      </trkpt>
      <trkpt lat="50.38769" lon="3.4237">
        <ele>31.86</ele>
        <time>2016-07-31T07:02:45Z</time>
      </trkpt>
      <trkpt lat="50.38759" lon="3.42366">
        <ele>32.34</ele>
        <time>2016-07-31T07:02:55Z</time>
      </trkpt>
      <trkpt lat="50.38749" lon="3.42371">
        <ele>32.34</ele>
        <time>2016-07-31T07:03:03Z</time>
      </trkpt>
      <trkpt lat="50.3874" lon="3.4238">
        <ele>32.82</ele>
        <time>2016-07-31T07:03:11Z</time>
      </trkpt>
      <trkpt lat="50.38732" lon="3.4239">
        <ele>32.82</ele>
        <time>2016-07-31T07:03:19Z</time>
      </trkpt>
      <trkpt lat="50.38723" lon="3.42397">
        <ele>32.82</ele>
        <time>2016-07-31T07:03:27Z</time>
      </trkpt>
      <trkpt lat="50.38715" lon="3.42405">
        <ele>33.3</ele>
        <time>2016-07-31T07:03:34Z</time>
      </trkpt>
      <trkpt lat="50.38707" lon="3.42415">
        <ele>33.78</ele>
        <time>2016-07-31T07:03:42Z</time>
      </trkpt>
      <trkpt lat="50.38698" lon="3.42424">
        <ele>34.26</ele>
        <time>2016-07-31T07:03:50Z</time>
      </trkpt>
      <trkpt lat="50.3869" lon="3.42432">
        <ele>33.3</ele>
        <time>2016-07-31T07:03:57Z</time>
      </trkpt>
      <trkpt lat="50.38682" lon="3.4244">
        <ele>33.78</ele>
        <time>2016-07-31T07:04:05Z</time>
      </trkpt>
      <trkpt lat="50.38673" lon="3.42449">
        <ele>33.78</ele>
        <time>2016-07-31T07:04:13Z</time>
      </trkpt>
      <trkpt lat="50.38665" lon="3.42457">
        <ele>33.78</ele>
        <time>2016-07-31T07:04:20Z</time>
      </trkpt>
      <trkpt lat="50.38657" lon="3.42466">
        <ele>34.26</ele>
        <time>2016-07-31T07:04:28Z</time>
      </trkpt>
      <trkpt lat="50.38649" lon="3.42475">
        <ele>34.74</ele>
        <time>2016-07-31T07:04:36Z</time>
      </trkpt>
      <trkpt lat="50.3864" lon="3.42484">
        <ele>34.74</ele>
        <time>2016-07-31T07:04:44Z</time>
      </trkpt>
      <trkpt lat="50.38631" lon="3.42491">
        <ele>34.74</ele>
        <time>2016-07-31T07:04:52Z</time>
      </trkpt>
      <trkpt lat="50.38623" lon="3.425">
        <ele>34.74</ele>
        <time>2016-07-31T07:05:00Z</time>
      </trkpt>
      <trkpt lat="50.38613" lon="3.4251">
        <ele>35.23</ele>
        <time>2016-07-31T07:05:08Z</time>
      </trkpt>
      <trkpt lat="50.38606" lon="3.42519">
        <ele>35.71</ele>
        <time>2016-07-31T07:05:16Z</time>
      </trkpt>
      <trkpt lat="50.38597" lon="3.42527">
        <ele>36.19</ele>
        <time>2016-07-31T07:05:24Z</time>
      </trkpt>
      <trkpt lat="50.38588" lon="3.42538">
        <ele>36.19</ele>
        <time>2016-07-31T07:05:32Z</time>
      </trkpt>
      <trkpt lat="50.3858" lon="3.42546">
        <ele>36.19</ele>
        <time>2016-07-31T07:05:41Z</time>
      </trkpt>
      <trkpt lat="50.3857" lon="3.42552">
        <ele>36.19</ele>
        <time>2016-07-31T07:05:50Z</time>
      </trkpt>
      <trkpt lat="50.38562" lon="3.42561">
        <ele>37.15</ele>
        <time>2016-07-31T07:05:58Z</time>
      </trkpt>
      <trkpt lat="50.38553" lon="3.4257">
        <ele>36.67</ele>
        <time>2016-07-31T07:06:06Z</time>
      </trkpt>
      <trkpt lat="50.38544" lon="3.42578">
        <ele>36.67</ele>
        <time>2016-07-31T07:06:14Z</time>
      </trkpt>
      <trkpt lat="50.38535" lon="3.42586">
        <ele>37.15</ele>
        <time>2016-07-31T07:06:22Z</time>
      </trkpt>
      <trkpt lat="50.38527" lon="3.42594">
        <ele>37.15</ele>
        <time>2016-07-31T07:06:29Z</time>
      </trkpt>
      <trkpt lat="50.38519" lon="3.42602">
        <ele>37.15</ele>
        <time>2016-07-31T07:06:37Z</time>
      </trkpt>
      <trkpt lat="50.38509" lon="3.4261">
        <ele>37.15</ele>
        <time>2016-07-31T07:06:46Z</time>
      </trkpt>
      <trkpt lat="50.38502" lon="3.42625">
        <ele>37.15</ele>
        <time>2016-07-31T07:06:56Z</time>
      </trkpt>
      <trkpt lat="50.38494" lon="3.42634">
        <ele>36.67</ele>
        <time>2016-07-31T07:07:04Z</time>
      </trkpt>
      <trkpt lat="50.38486" lon="3.42642">
        <ele>37.15</ele>
        <time>2016-07-31T07:07:12Z</time>
      </trkpt>
      <trkpt lat="50.38477" lon="3.42649">
        <ele>36.67</ele>
        <time>2016-07-31T07:07:20Z</time>
      </trkpt>
      <trkpt lat="50.38469" lon="3.42659">
        <ele>37.15</ele>
        <time>2016-07-31T07:07:28Z</time>
      </trkpt>
      <trkpt lat="50.3846" lon="3.42667">
        <ele>37.15</ele>
        <time>2016-07-31T07:07:36Z</time>
      </trkpt>
      <trkpt lat="50.38452" lon="3.42674">
        <ele>37.15</ele>
        <time>2016-07-31T07:07:44Z</time>
      </trkpt>
      <trkpt lat="50.38442" lon="3.42676">
        <ele>37.15</ele>
        <time>2016-07-31T07:08:03Z</time>
      </trkpt>
      <trkpt lat="50.38437" lon="3.42676">
        <ele>37.63</ele>
        <time>2016-07-31T07:08:23Z</time>
      </trkpt>
      <trkpt lat="50.38436" lon="3.42679">
        <ele>37.63</ele>
        <time>2016-07-31T07:09:08Z</time>
      </trkpt>
      <trkpt lat="50.38432" lon="3.42692">
        <ele>37.15</ele>
        <time>2016-07-31T07:09:21Z</time>
      </trkpt>
      <trkpt lat="50.38424" lon="3.42701">
        <ele>37.15</ele>
        <time>2016-07-31T07:09:39Z</time>
      </trkpt>
      <trkpt lat="50.38415" lon="3.42709">
        <ele>37.15</ele>
        <time>2016-07-31T07:09:49Z</time>
      </trkpt>
      <trkpt lat="50.38406" lon="3.42717">
        <ele>37.15</ele>
        <time>2016-07-31T07:09:58Z</time>
      </trkpt>
      <trkpt lat="50.38397" lon="3.4272">
        <ele>37.15</ele>
        <time>2016-07-31T07:10:07Z</time>
      </trkpt>
      <trkpt lat="50.38385" lon="3.42719">
        <ele>37.15</ele>
        <time>2016-07-31T07:10:16Z</time>
      </trkpt>
      <trkpt lat="50.38375" lon="3.42717">
        <ele>36.67</ele>
        <time>2016-07-31T07:10:25Z</time>
      </trkpt>
      <trkpt lat="50.38365" lon="3.42716">
        <ele>36.67</ele>
        <time>2016-07-31T07:10:35Z</time>
      </trkpt>
      <trkpt lat="50.38356" lon="3.42716">
        <ele>36.67</ele>
        <time>2016-07-31T07:10:43Z</time>
      </trkpt>
      <trkpt lat="50.38346" lon="3.42717">
        <ele>36.67</ele>
        <time>2016-07-31T07:10:51Z</time>
      </trkpt>
      <trkpt lat="50.38337" lon="3.42716">
        <ele>36.19</ele>
        <time>2016-07-31T07:10:59Z</time>
      </trkpt>
      <trkpt lat="50.38326" lon="3.42714">
        <ele>36.67</ele>
        <time>2016-07-31T07:11:08Z</time>
      </trkpt>
      <trkpt lat="50.38316" lon="3.42715">
        <ele>36.19</ele>
        <time>2016-07-31T07:11:17Z</time>
      </trkpt>
      <trkpt lat="50.38307" lon="3.42714">
        <ele>36.19</ele>
        <time>2016-07-31T07:11:25Z</time>
      </trkpt>
      <trkpt lat="50.38298" lon="3.42718">
        <ele>35.71</ele>
        <time>2016-07-31T07:11:33Z</time>
      </trkpt>
      <trkpt lat="50.38288" lon="3.4272">
        <ele>35.71</ele>
        <time>2016-07-31T07:11:41Z</time>
      </trkpt>
      <trkpt lat="50.38279" lon="3.4272">
        <ele>36.19</ele>
        <time>2016-07-31T07:11:49Z</time>
      </trkpt>
      <trkpt lat="50.38268" lon="3.42719">
        <ele>35.71</ele>
        <time>2016-07-31T07:11:58Z</time>
      </trkpt>
      <trkpt lat="50.38258" lon="3.42718">
        <ele>35.71</ele>
        <time>2016-07-31T07:12:06Z</time>
      </trkpt>
      <trkpt lat="50.38248" lon="3.42715">
        <ele>35.71</ele>
        <time>2016-07-31T07:12:14Z</time>
      </trkpt>
      <trkpt lat="50.38238" lon="3.42715">
        <ele>35.23</ele>
        <time>2016-07-31T07:12:21Z</time>
      </trkpt>
      <trkpt lat="50.38229" lon="3.42716">
        <ele>35.71</ele>
        <time>2016-07-31T07:12:30Z</time>
      </trkpt>
      <trkpt lat="50.38219" lon="3.42716">
        <ele>35.23</ele>
        <time>2016-07-31T07:12:38Z</time>
      </trkpt>
      <trkpt lat="50.3821" lon="3.42714">
        <ele>35.23</ele>
        <time>2016-07-31T07:12:47Z</time>
      </trkpt>
      <trkpt lat="50.38198" lon="3.42718">
        <ele>35.23</ele>
        <time>2016-07-31T07:12:58Z</time>
      </trkpt>
      <trkpt lat="50.38187" lon="3.42723">
        <ele>34.74</ele>
        <time>2016-07-31T07:13:06Z</time>
      </trkpt>
      <trkpt lat="50.38179" lon="3.42728">
        <ele>35.23</ele>
        <time>2016-07-31T07:13:13Z</time>
      </trkpt>
      <trkpt lat="50.38169" lon="3.42733">
        <ele>34.74</ele>
        <time>2016-07-31T07:13:22Z</time>
      </trkpt>
      <trkpt lat="50.38159" lon="3.42733">
        <ele>34.74</ele>
        <time>2016-07-31T07:13:29Z</time>
      </trkpt>
      <trkpt lat="50.38151" lon="3.42737">
        <ele>34.26</ele>
        <time>2016-07-31T07:13:38Z</time>
      </trkpt>
      <trkpt lat="50.3814" lon="3.42739">
        <ele>34.74</ele>
        <time>2016-07-31T07:13:46Z</time>
      </trkpt>
      <trkpt lat="50.38131" lon="3.4274">
        <ele>34.26</ele>
        <time>2016-07-31T07:13:53Z</time>
      </trkpt>
      <trkpt lat="50.38122" lon="3.42745">
        <ele>34.26</ele>
        <time>2016-07-31T07:14:01Z</time>
      </trkpt>
      <trkpt lat="50.38113" lon="3.42754">
        <ele>33.78</ele>
        <time>2016-07-31T07:14:10Z</time>
      </trkpt>
      <trkpt lat="50.38104" lon="3.42759">
        <ele>34.26</ele>
        <time>2016-07-31T07:14:19Z</time>
      </trkpt>
      <trkpt lat="50.381" lon="3.42767">
        <ele>34.74</ele>
        <time>2016-07-31T07:14:55Z</time>
      </trkpt>
      <trkpt lat="50.3809" lon="3.42764">
        <ele>34.26</ele>
        <time>2016-07-31T07:15:03Z</time>
      </trkpt>
      <trkpt lat="50.38081" lon="3.42767">
        <ele>34.26</ele>
        <time>2016-07-31T07:15:11Z</time>
      </trkpt>
      <trkpt lat="50.3807" lon="3.4277">
        <ele>34.26</ele>
        <time>2016-07-31T07:15:20Z</time>
      </trkpt>
      <trkpt lat="50.38058" lon="3.42772">
        <ele>34.26</ele>
        <time>2016-07-31T07:15:30Z</time>
      </trkpt>
      <trkpt lat="50.38046" lon="3.42773">
        <ele>34.74</ele>
        <time>2016-07-31T07:15:41Z</time>
      </trkpt>
      <trkpt lat="50.38034" lon="3.42771">
        <ele>34.26</ele>
        <time>2016-07-31T07:15:53Z</time>
      </trkpt>
      <trkpt lat="50.38023" lon="3.42776">
        <ele>34.26</ele>
        <time>2016-07-31T07:16:08Z</time>
      </trkpt>
      <trkpt lat="50.38013" lon="3.42784">
        <ele>33.78</ele>
        <time>2016-07-31T07:16:21Z</time>
      </trkpt>
      <trkpt lat="50.38" lon="3.42786">
        <ele>34.26</ele>
        <time>2016-07-31T07:16:37Z</time>
      </trkpt>
      <trkpt lat="50.37992" lon="3.42798">
        <ele>34.74</ele>
        <time>2016-07-31T07:16:48Z</time>
      </trkpt>
      <trkpt lat="50.37991" lon="3.42814">
        <ele>34.26</ele>
        <time>2016-07-31T07:17:00Z</time>
      </trkpt>
      <trkpt lat="50.37989" lon="3.42831">
        <ele>34.74</ele>
        <time>2016-07-31T07:17:09Z</time>
      </trkpt>
      <trkpt lat="50.37992" lon="3.42846">
        <ele>34.74</ele>
        <time>2016-07-31T07:17:17Z</time>
      </trkpt>
      <trkpt lat="50.37994" lon="3.42862">
        <ele>35.23</ele>
        <time>2016-07-31T07:17:25Z</time>
      </trkpt>
      <trkpt lat="50.37995" lon="3.42875">
        <ele>35.23</ele>
        <time>2016-07-31T07:18:26Z</time>
      </trkpt>
      <trkpt lat="50.37997" lon="3.4289">
        <ele>35.23</ele>
        <time>2016-07-31T07:18:36Z</time>
      </trkpt>
      <trkpt lat="50.37999" lon="3.42905">
        <ele>35.71</ele>
        <time>2016-07-31T07:18:47Z</time>
      </trkpt>
      <trkpt lat="50.37999" lon="3.42923">
        <ele>35.71</ele>
        <time>2016-07-31T07:18:55Z</time>
      </trkpt>
      <trkpt lat="50.38" lon="3.4294">
        <ele>35.71</ele>
        <time>2016-07-31T07:19:04Z</time>
      </trkpt>
      <trkpt lat="50.38001" lon="3.42956">
        <ele>35.71</ele>
        <time>2016-07-31T07:19:12Z</time>
      </trkpt>
      <trkpt lat="50.38003" lon="3.42973">
        <ele>35.71</ele>
        <time>2016-07-31T07:19:21Z</time>
      </trkpt>
      <trkpt lat="50.38005" lon="3.42989">
        <ele>36.19</ele>
        <time>2016-07-31T07:19:30Z</time>
      </trkpt>
      <trkpt lat="50.38007" lon="3.43009">
        <ele>36.19</ele>
        <time>2016-07-31T07:19:39Z</time>
      </trkpt>
      <trkpt lat="50.38006" lon="3.43029">
        <ele>36.67</ele>
        <time>2016-07-31T07:19:49Z</time>
      </trkpt>
      <trkpt lat="50.38008" lon="3.43047">
        <ele>36.19</ele>
        <time>2016-07-31T07:19:58Z</time>
      </trkpt>
      <trkpt lat="50.3801" lon="3.43063">
        <ele>36.67</ele>
        <time>2016-07-31T07:20:06Z</time>
      </trkpt>
      <trkpt lat="50.38012" lon="3.43081">
        <ele>36.67</ele>
        <time>2016-07-31T07:20:15Z</time>
      </trkpt>
      <trkpt lat="50.38014" lon="3.43099">
        <ele>36.67</ele>
        <time>2016-07-31T07:20:36Z</time>
      </trkpt>
      <trkpt lat="50.38005" lon="3.43103">
        <ele>36.67</ele>
        <time>2016-07-31T07:20:46Z</time>
      </trkpt>
      <trkpt lat="50.37996" lon="3.43107">
        <ele>37.15</ele>
        <time>2016-07-31T07:20:53Z</time>
      </trkpt>
      <trkpt lat="50.37986" lon="3.43108">
        <ele>36.67</ele>
        <time>2016-07-31T07:21:01Z</time>
      </trkpt>
      <trkpt lat="50.37982" lon="3.43119">
        <ele>37.15</ele>
        <time>2016-07-31T07:21:10Z</time>
      </trkpt>
      <trkpt lat="50.37982" lon="3.43134">
        <ele>37.63</ele>
        <time>2016-07-31T07:21:17Z</time>
      </trkpt>
      <trkpt lat="50.37982" lon="3.4315">
        <ele>37.63</ele>
        <time>2016-07-31T07:21:25Z</time>
      </trkpt>
      <trkpt lat="50.37983" lon="3.43165">
        <ele>38.11</ele>
        <time>2016-07-31T07:21:33Z</time>
      </trkpt>
      <trkpt lat="50.37987" lon="3.43176">
        <ele>38.59</ele>
        <time>2016-07-31T07:21:42Z</time>
      </trkpt>
      <trkpt lat="50.37998" lon="3.43176">
        <ele>38.11</ele>
        <time>2016-07-31T07:22:02Z</time>
      </trkpt>
      <trkpt lat="50.38009" lon="3.43175">
        <ele>38.11</ele>
        <time>2016-07-31T07:22:11Z</time>
      </trkpt>
      <trkpt lat="50.3802" lon="3.43173">
        <ele>37.63</ele>
        <time>2016-07-31T07:22:20Z</time>
      </trkpt>
      <trkpt lat="50.3803" lon="3.43172">
        <ele>37.63</ele>
        <time>2016-07-31T07:22:28Z</time>
      </trkpt>
      <trkpt lat="50.3804" lon="3.43175">
        <ele>38.11</ele>
        <time>2016-07-31T07:22:37Z</time>
      </trkpt>
      <trkpt lat="50.38051" lon="3.43176">
        <ele>37.63</ele>
        <time>2016-07-31T07:22:45Z</time>
      </trkpt>
      <trkpt lat="50.38061" lon="3.43176">
        <ele>37.63</ele>
        <time>2016-07-31T07:22:58Z</time>
      </trkpt>
      <trkpt lat="50.38071" lon="3.43173">
        <ele>37.63</ele>
        <time>2016-07-31T07:23:08Z</time>
      </trkpt>
      <trkpt lat="50.38081" lon="3.43173">
        <ele>37.15</ele>
        <time>2016-07-31T07:23:15Z</time>
      </trkpt>
      <trkpt lat="50.3809" lon="3.43174">
        <ele>37.63</ele>
        <time>2016-07-31T07:23:24Z</time>
      </trkpt>
      <trkpt lat="50.381" lon="3.43171">
        <ele>37.63</ele>
        <time>2016-07-31T07:23:35Z</time>
      </trkpt>
      <trkpt lat="50.3811" lon="3.43169">
        <ele>37.15</ele>
        <time>2016-07-31T07:23:44Z</time>
      </trkpt>
      <trkpt lat="50.38121" lon="3.4317">
        <ele>37.63</ele>
        <time>2016-07-31T07:23:53Z</time>
      </trkpt>
      <trkpt lat="50.38129" lon="3.4317">
        <ele>37.63</ele>
        <time>2016-07-31T07:24:00Z</time>
      </trkpt>
      <trkpt lat="50.3814" lon="3.43167">
        <ele>37.63</ele>
        <time>2016-07-31T07:24:08Z</time>
      </trkpt>
      <trkpt lat="50.38151" lon="3.43167">
        <ele>37.63</ele>
        <time>2016-07-31T07:24:15Z</time>
      </trkpt>
      <trkpt lat="50.38161" lon="3.43167">
        <ele>38.11</ele>
        <time>2016-07-31T07:24:21Z</time>
      </trkpt>
      <trkpt lat="50.3817" lon="3.43171">
        <ele>38.11</ele>
        <time>2016-07-31T07:24:28Z</time>
      </trkpt>
      <trkpt lat="50.38175" lon="3.43181">
        <ele>37.63</ele>
        <time>2016-07-31T07:24:36Z</time>
      </trkpt>
      <trkpt lat="50.38175" lon="3.43196">
        <ele>38.59</ele>
        <time>2016-07-31T07:24:43Z</time>
      </trkpt>
      <trkpt lat="50.38175" lon="3.43212">
        <ele>38.59</ele>
        <time>2016-07-31T07:24:51Z</time>
      </trkpt>
      <trkpt lat="50.38174" lon="3.43227">
        <ele>39.07</ele>
        <time>2016-07-31T07:24:59Z</time>
      </trkpt>
      <trkpt lat="50.38178" lon="3.4324">
        <ele>39.07</ele>
        <time>2016-07-31T07:25:07Z</time>
      </trkpt>
      <trkpt lat="50.38185" lon="3.43251">
        <ele>39.07</ele>
        <time>2016-07-31T07:25:16Z</time>
      </trkpt>
      <trkpt lat="50.38192" lon="3.43265">
        <ele>39.55</ele>
        <time>2016-07-31T07:25:24Z</time>
      </trkpt>
      <trkpt lat="50.382" lon="3.43272">
        <ele>39.07</ele>
        <time>2016-07-31T07:25:32Z</time>
      </trkpt>
      <trkpt lat="50.3821" lon="3.43276">
        <ele>39.55</ele>
        <time>2016-07-31T07:25:40Z</time>
      </trkpt>
      <trkpt lat="50.38222" lon="3.43275">
        <ele>39.07</ele>
        <time>2016-07-31T07:25:48Z</time>
      </trkpt>
      <trkpt lat="50.38231" lon="3.43276">
        <ele>39.55</ele>
        <time>2016-07-31T07:25:55Z</time>
      </trkpt>
      <trkpt lat="50.38241" lon="3.43278">
        <ele>39.07</ele>
        <time>2016-07-31T07:26:02Z</time>
      </trkpt>
      <trkpt lat="50.38251" lon="3.43279">
        <ele>39.07</ele>
        <time>2016-07-31T07:26:10Z</time>
      </trkpt>
      <trkpt lat="50.3826" lon="3.43279">
        <ele>39.07</ele>
        <time>2016-07-31T07:26:17Z</time>
      </trkpt>
      <trkpt lat="50.38269" lon="3.43281">
        <ele>39.07</ele>
        <time>2016-07-31T07:26:24Z</time>
      </trkpt>
      <trkpt lat="50.38276" lon="3.43288">
        <ele>39.07</ele>
        <time>2016-07-31T07:26:40Z</time>
      </trkpt>
      <trkpt lat="50.38286" lon="3.43287">
        <ele>39.07</ele>
        <time>2016-07-31T07:26:49Z</time>
      </trkpt>
      <trkpt lat="50.38296" lon="3.43288">
        <ele>39.07</ele>
        <time>2016-07-31T07:26:58Z</time>
      </trkpt>
      <trkpt lat="50.38306" lon="3.43289">
        <ele>39.55</ele>
        <time>2016-07-31T07:27:05Z</time>
      </trkpt>
      <trkpt lat="50.38316" lon="3.43291">
        <ele>39.07</ele>
        <time>2016-07-31T07:27:14Z</time>
      </trkpt>
      <trkpt lat="50.38326" lon="3.43294">
        <ele>39.07</ele>
        <time>2016-07-31T07:27:23Z</time>
      </trkpt>
      <trkpt lat="50.38337" lon="3.43289">
        <ele>39.55</ele>
        <time>2016-07-31T07:27:31Z</time>
      </trkpt>
      <trkpt lat="50.38347" lon="3.43289">
        <ele>39.07</ele>
        <time>2016-07-31T07:27:40Z</time>
      </trkpt>
      <trkpt lat="50.38357" lon="3.4329">
        <ele>39.07</ele>
        <time>2016-07-31T07:27:48Z</time>
      </trkpt>
      <trkpt lat="50.38367" lon="3.43291">
        <ele>39.07</ele>
        <time>2016-07-31T07:27:56Z</time>
      </trkpt>
      <trkpt lat="50.38377" lon="3.43291">
        <ele>39.07</ele>
        <time>2016-07-31T07:28:04Z</time>
      </trkpt>
      <trkpt lat="50.38387" lon="3.43293">
        <ele>39.07</ele>
        <time>2016-07-31T07:28:11Z</time>
      </trkpt>
      <trkpt lat="50.38396" lon="3.43297">
        <ele>39.07</ele>
        <time>2016-07-31T07:28:19Z</time>
      </trkpt>
      <trkpt lat="50.38406" lon="3.43289">
        <ele>38.59</ele>
        <time>2016-07-31T07:28:32Z</time>
      </trkpt>
      <trkpt lat="50.38416" lon="3.43286">
        <ele>38.11</ele>
        <time>2016-07-31T07:28:40Z</time>
      </trkpt>
      <trkpt lat="50.38424" lon="3.43284">
        <ele>38.11</ele>
        <time>2016-07-31T07:28:47Z</time>
      </trkpt>
      <trkpt lat="50.38434" lon="3.43285">
        <ele>38.11</ele>
        <time>2016-07-31T07:28:54Z</time>
      </trkpt>
      <trkpt lat="50.38445" lon="3.43286">
        <ele>37.63</ele>
        <time>2016-07-31T07:29:03Z</time>
      </trkpt>
      <trkpt lat="50.38455" lon="3.43285">
        <ele>37.15</ele>
        <time>2016-07-31T07:29:12Z</time>
      </trkpt>
      <trkpt lat="50.38466" lon="3.43285">
        <ele>37.15</ele>
        <time>2016-07-31T07:29:19Z</time>
      </trkpt>
      <trkpt lat="50.38475" lon="3.43288">
        <ele>36.67</ele>
        <time>2016-07-31T07:29:27Z</time>
      </trkpt>
      <trkpt lat="50.38485" lon="3.43289">
        <ele>36.67</ele>
        <time>2016-07-31T07:29:35Z</time>
      </trkpt>
      <trkpt lat="50.38495" lon="3.4329">
        <ele>36.67</ele>
        <time>2016-07-31T07:29:42Z</time>
      </trkpt>
      <trkpt lat="50.38504" lon="3.43292">
        <ele>36.19</ele>
        <time>2016-07-31T07:29:49Z</time>
      </trkpt>
      <trkpt lat="50.38514" lon="3.43291">
        <ele>36.67</ele>
        <time>2016-07-31T07:29:58Z</time>
      </trkpt>
      <trkpt lat="50.38524" lon="3.43291">
        <ele>35.71</ele>
        <time>2016-07-31T07:30:08Z</time>
      </trkpt>
      <trkpt lat="50.38534" lon="3.43294">
        <ele>36.19</ele>
        <time>2016-07-31T07:30:16Z</time>
      </trkpt>
      <trkpt lat="50.38544" lon="3.43294">
        <ele>36.19</ele>
        <time>2016-07-31T07:30:25Z</time>
      </trkpt>
      <trkpt lat="50.38552" lon="3.43293">
        <ele>35.71</ele>
        <time>2016-07-31T07:30:31Z</time>
      </trkpt>
      <trkpt lat="50.3856" lon="3.43293">
        <ele>35.71</ele>
        <time>2016-07-31T07:30:43Z</time>
      </trkpt>
      <trkpt lat="50.38569" lon="3.43292">
        <ele>35.23</ele>
        <time>2016-07-31T07:30:50Z</time>
      </trkpt>
      <trkpt lat="50.38579" lon="3.43292">
        <ele>35.23</ele>
        <time>2016-07-31T07:30:58Z</time>
      </trkpt>
      <trkpt lat="50.38588" lon="3.43293">
        <ele>35.23</ele>
        <time>2016-07-31T07:31:05Z</time>
      </trkpt>
      <trkpt lat="50.38598" lon="3.43296">
        <ele>35.23</ele>
        <time>2016-07-31T07:31:12Z</time>
      </trkpt>
      <trkpt lat="50.38607" lon="3.43296">
        <ele>35.23</ele>
        <time>2016-07-31T07:31:20Z</time>
      </trkpt>
      <trkpt lat="50.38615" lon="3.43298">
        <ele>34.74</ele>
        <time>2016-07-31T07:31:27Z</time>
      </trkpt>
      <trkpt lat="50.38624" lon="3.43299">
        <ele>35.23</ele>
        <time>2016-07-31T07:31:34Z</time>
      </trkpt>
      <trkpt lat="50.38635" lon="3.43301">
        <ele>34.74</ele>
        <time>2016-07-31T07:31:42Z</time>
      </trkpt>
      <trkpt lat="50.38644" lon="3.43301">
        <ele>34.74</ele>
        <time>2016-07-31T07:31:49Z</time>
      </trkpt>
      <trkpt lat="50.38653" lon="3.43303">
        <ele>34.26</ele>
        <time>2016-07-31T07:31:57Z</time>
      </trkpt>
      <trkpt lat="50.38662" lon="3.43304">
        <ele>33.78</ele>
        <time>2016-07-31T07:32:05Z</time>
      </trkpt>
      <trkpt lat="50.38671" lon="3.43306">
        <ele>33.78</ele>
        <time>2016-07-31T07:32:12Z</time>
      </trkpt>
      <trkpt lat="50.38681" lon="3.43306">
        <ele>33.3</ele>
        <time>2016-07-31T07:32:20Z</time>
      </trkpt>
      <trkpt lat="50.38691" lon="3.43308">
        <ele>32.82</ele>
        <time>2016-07-31T07:32:27Z</time>
      </trkpt>
      <trkpt lat="50.38701" lon="3.4331">
        <ele>33.3</ele>
        <time>2016-07-31T07:32:34Z</time>
      </trkpt>
      <trkpt lat="50.38709" lon="3.43308">
        <ele>32.34</ele>
        <time>2016-07-31T07:32:42Z</time>
      </trkpt>
      <trkpt lat="50.38719" lon="3.43305">
        <ele>32.34</ele>
        <time>2016-07-31T07:32:49Z</time>
      </trkpt>
      <trkpt lat="50.38729" lon="3.43304">
        <ele>31.86</ele>
        <time>2016-07-31T07:32:59Z</time>
      </trkpt>
      <trkpt lat="50.38737" lon="3.43305">
        <ele>31.86</ele>
        <time>2016-07-31T07:33:06Z</time>
      </trkpt>
      <trkpt lat="50.38746" lon="3.43304">
        <ele>31.86</ele>
        <time>2016-07-31T07:33:14Z</time>
      </trkpt>
      <trkpt lat="50.38755" lon="3.43303">
        <ele>30.9</ele>
        <time>2016-07-31T07:33:22Z</time>
      </trkpt>
      <trkpt lat="50.38765" lon="3.43304">
        <ele>30.9</ele>
        <time>2016-07-31T07:33:30Z</time>
      </trkpt>
      <trkpt lat="50.38775" lon="3.43307">
        <ele>30.42</ele>
        <time>2016-07-31T07:33:37Z</time>
      </trkpt>
      <trkpt lat="50.38784" lon="3.43307">
        <ele>30.9</ele>
        <time>2016-07-31T07:33:45Z</time>
      </trkpt>
      <trkpt lat="50.38794" lon="3.4331">
        <ele>29.94</ele>
        <time>2016-07-31T07:33:52Z</time>
      </trkpt>
      <trkpt lat="50.38804" lon="3.4331">
        <ele>30.42</ele>
        <time>2016-07-31T07:34:01Z</time>
      </trkpt>
      <trkpt lat="50.38814" lon="3.4331">
        <ele>29.46</ele>
        <time>2016-07-31T07:34:10Z</time>
      </trkpt>
      <trkpt lat="50.38825" lon="3.43312">
        <ele>29.46</ele>
        <time>2016-07-31T07:34:18Z</time>
      </trkpt>
      <trkpt lat="50.38835" lon="3.43312">
        <ele>28.98</ele>
        <time>2016-07-31T07:34:26Z</time>
      </trkpt>
      <trkpt lat="50.38845" lon="3.43313">
        <ele>28.98</ele>
        <time>2016-07-31T07:34:34Z</time>
      </trkpt>
      <trkpt lat="50.38854" lon="3.43314">
        <ele>29.46</ele>
        <time>2016-07-31T07:34:41Z</time>
      </trkpt>
      <trkpt lat="50.38863" lon="3.43315">
        <ele>28.98</ele>
        <time>2016-07-31T07:34:50Z</time>
      </trkpt>
      <trkpt lat="50.38872" lon="3.43314">
        <ele>28.5</ele>
        <time>2016-07-31T07:34:58Z</time>
      </trkpt>
      <trkpt lat="50.38882" lon="3.43315">
        <ele>28.98</ele>
        <time>2016-07-31T07:35:14Z</time>
      </trkpt>
      <trkpt lat="50.38891" lon="3.43319">
        <ele>28.5</ele>
        <time>2016-07-31T07:35:51Z</time>
      </trkpt>
      <trkpt lat="50.38897" lon="3.43321">
        <ele>28.98</ele>
        <time>2016-07-31T07:36:32Z</time>
      </trkpt>
      <trkpt lat="50.38908" lon="3.4332">
        <ele>28.5</ele>
        <time>2016-07-31T07:36:45Z</time>
      </trkpt>
      <trkpt lat="50.38917" lon="3.4332">
        <ele>27.53</ele>
        <time>2016-07-31T07:36:54Z</time>
      </trkpt>
      <trkpt lat="50.3893" lon="3.43321">
        <ele>27.53</ele>
        <time>2016-07-31T07:37:06Z</time>
      </trkpt>
      <trkpt lat="50.38939" lon="3.4332">
        <ele>26.09</ele>
        <time>2016-07-31T07:37:13Z</time>
      </trkpt>
      <trkpt lat="50.38949" lon="3.43317">
        <ele>25.61</ele>
        <time>2016-07-31T07:37:20Z</time>
      </trkpt>
      <trkpt lat="50.38958" lon="3.43316">
        <ele>25.13</ele>
        <time>2016-07-31T07:37:28Z</time>
      </trkpt>
      <trkpt lat="50.38967" lon="3.43317">
        <ele>24.17</ele>
        <time>2016-07-31T07:37:39Z</time>
      </trkpt>
      <trkpt lat="50.38974" lon="3.43321">
        <ele>24.17</ele>
        <time>2016-07-31T07:37:50Z</time>
      </trkpt>
      <trkpt lat="50.38984" lon="3.43321">
        <ele>23.69</ele>
        <time>2016-07-31T07:37:59Z</time>
      </trkpt>
      <trkpt lat="50.38995" lon="3.4333">
        <ele>23.21</ele>
        <time>2016-07-31T07:38:08Z</time>
      </trkpt>
      <trkpt lat="50.39007" lon="3.43335">
        <ele>23.21</ele>
        <time>2016-07-31T07:38:15Z</time>
      </trkpt>
      <trkpt lat="50.39016" lon="3.43342">
        <ele>23.21</ele>
        <time>2016-07-31T07:38:21Z</time>
      </trkpt>
      <trkpt lat="50.39025" lon="3.43351">
        <ele>22.73</ele>
        <time>2016-07-31T07:38:29Z</time>
      </trkpt>
      <trkpt lat="50.39034" lon="3.43364">
        <ele>22.73</ele>
        <time>2016-07-31T07:38:45Z</time>
      </trkpt>
      <trkpt lat="50.3904" lon="3.43376">
        <ele>22.73</ele>
        <time>2016-07-31T07:38:53Z</time>
      </trkpt>
      <trkpt lat="50.39045" lon="3.43387">
        <ele>22.25</ele>
        <time>2016-07-31T07:39:02Z</time>
      </trkpt>
      <trkpt lat="50.39049" lon="3.43402">
        <ele>21.77</ele>
        <time>2016-07-31T07:39:10Z</time>
      </trkpt>
      <trkpt lat="50.39055" lon="3.43417">
        <ele>21.77</ele>
        <time>2016-07-31T07:39:18Z</time>
      </trkpt>
      <trkpt lat="50.39062" lon="3.43428">
        <ele>21.29</ele>
        <time>2016-07-31T07:39:25Z</time>
      </trkpt>
      <trkpt lat="50.39067" lon="3.43441">
        <ele>21.29</ele>
        <time>2016-07-31T07:39:33Z</time>
      </trkpt>
      <trkpt lat="50.39074" lon="3.43456">
        <ele>21.29</ele>
        <time>2016-07-31T07:39:41Z</time>
      </trkpt>
      <trkpt lat="50.39081" lon="3.43469">
        <ele>21.29</ele>
        <time>2016-07-31T07:39:50Z</time>
      </trkpt>
      <trkpt lat="50.39088" lon="3.43484">
        <ele>21.29</ele>
        <time>2016-07-31T07:39:58Z</time>
      </trkpt>
      <trkpt lat="50.39093" lon="3.43499">
        <ele>20.81</ele>
        <time>2016-07-31T07:40:06Z</time>
      </trkpt>
      <trkpt lat="50.39098" lon="3.43512">
        <ele>20.32</ele>
        <time>2016-07-31T07:40:13Z</time>
      </trkpt>
      <trkpt lat="50.39105" lon="3.43525">
        <ele>20.32</ele>
        <time>2016-07-31T07:40:21Z</time>
      </trkpt>
      <trkpt lat="50.3911" lon="3.43538">
        <ele>20.32</ele>
        <time>2016-07-31T07:40:28Z</time>
      </trkpt>
      <trkpt lat="50.39116" lon="3.43552">
        <ele>19.84</ele>
        <time>2016-07-31T07:40:36Z</time>
      </trkpt>
      <trkpt lat="50.39121" lon="3.43565">
        <ele>19.36</ele>
        <time>2016-07-31T07:40:44Z</time>
      </trkpt>
      <trkpt lat="50.39127" lon="3.43575">
        <ele>19.36</ele>
        <time>2016-07-31T07:40:55Z</time>
      </trkpt>
      <trkpt lat="50.39131" lon="3.43588">
        <ele>19.36</ele>
        <time>2016-07-31T07:41:02Z</time>
      </trkpt>
      <trkpt lat="50.39137" lon="3.436">
        <ele>18.88</ele>
        <time>2016-07-31T07:41:09Z</time>
      </trkpt>
      <trkpt lat="50.39142" lon="3.43613">
        <ele>18.88</ele>
        <time>2016-07-31T07:41:16Z</time>
      </trkpt>
      <trkpt lat="50.39147" lon="3.43626">
        <ele>18.4</ele>
        <time>2016-07-31T07:41:24Z</time>
      </trkpt>
      <trkpt lat="50.39151" lon="3.43641">
        <ele>18.88</ele>
        <time>2016-07-31T07:41:33Z</time>
      </trkpt>
      <trkpt lat="50.39156" lon="3.43658">
        <ele>18.4</ele>
        <time>2016-07-31T07:41:43Z</time>
      </trkpt>
      <trkpt lat="50.39161" lon="3.43671">
        <ele>18.4</ele>
        <time>2016-07-31T07:41:51Z</time>
      </trkpt>
      <trkpt lat="50.39169" lon="3.43683">
        <ele>18.4</ele>
        <time>2016-07-31T07:41:59Z</time>
      </trkpt>
      <trkpt lat="50.39176" lon="3.43695">
        <ele>18.4</ele>
        <time>2016-07-31T07:42:08Z</time>
      </trkpt>
      <trkpt lat="50.39182" lon="3.43712">
        <ele>17.92</ele>
        <time>2016-07-31T07:42:17Z</time>
      </trkpt>
      <trkpt lat="50.39188" lon="3.43725">
        <ele>17.92</ele>
        <time>2016-07-31T07:42:25Z</time>
      </trkpt>
      <trkpt lat="50.39191" lon="3.43742">
        <ele>17.92</ele>
        <time>2016-07-31T07:42:35Z</time>
      </trkpt>
      <trkpt lat="50.39195" lon="3.43756">
        <ele>17.92</ele>
        <time>2016-07-31T07:42:43Z</time>
      </trkpt>
      <trkpt lat="50.39202" lon="3.43769">
        <ele>17.92</ele>
        <time>2016-07-31T07:42:50Z</time>
      </trkpt>
      <trkpt lat="50.39209" lon="3.4378">
        <ele>17.92</ele>
        <time>2016-07-31T07:42:57Z</time>
      </trkpt>
      <trkpt lat="50.39217" lon="3.4379">
        <ele>17.44</ele>
        <time>2016-07-31T07:43:03Z</time>
      </trkpt>
      <trkpt lat="50.39225" lon="3.438">
        <ele>17.92</ele>
        <time>2016-07-31T07:43:10Z</time>
      </trkpt>
      <trkpt lat="50.39231" lon="3.43813">
        <ele>17.44</ele>
        <time>2016-07-31T07:43:18Z</time>
      </trkpt>
      <trkpt lat="50.39236" lon="3.43829">
        <ele>17.92</ele>
        <time>2016-07-31T07:43:27Z</time>
      </trkpt>
      <trkpt lat="50.39241" lon="3.43842">
        <ele>17.44</ele>
        <time>2016-07-31T07:43:35Z</time>
      </trkpt>
      <trkpt lat="50.39247" lon="3.43854">
        <ele>17.92</ele>
        <time>2016-07-31T07:43:42Z</time>
      </trkpt>
      <trkpt lat="50.39251" lon="3.43868">
        <ele>17.44</ele>
        <time>2016-07-31T07:43:52Z</time>
      </trkpt>
      <trkpt lat="50.39253" lon="3.43883">
        <ele>17.92</ele>
        <time>2016-07-31T07:44:09Z</time>
      </trkpt>
      <trkpt lat="50.39258" lon="3.43897">
        <ele>17.92</ele>
        <time>2016-07-31T07:44:16Z</time>
      </trkpt>
      <trkpt lat="50.39266" lon="3.43905">
        <ele>17.92</ele>
        <time>2016-07-31T07:44:22Z</time>
      </trkpt>
      <trkpt lat="50.39272" lon="3.43917">
        <ele>17.92</ele>
        <time>2016-07-31T07:44:29Z</time>
      </trkpt>
      <trkpt lat="50.39276" lon="3.43927">
        <ele>17.92</ele>
        <time>2016-07-31T07:44:37Z</time>
      </trkpt>
      <trkpt lat="50.39281" lon="3.43941">
        <ele>17.44</ele>
        <time>2016-07-31T07:44:45Z</time>
      </trkpt>
      <trkpt lat="50.39287" lon="3.43958">
        <ele>17.92</ele>
        <time>2016-07-31T07:44:54Z</time>
      </trkpt>
      <trkpt lat="50.39292" lon="3.43972">
        <ele>17.92</ele>
        <time>2016-07-31T07:45:01Z</time>
      </trkpt>
      <trkpt lat="50.39295" lon="3.43986">
        <ele>17.92</ele>
        <time>2016-07-31T07:45:08Z</time>
      </trkpt>
      <trkpt lat="50.39299" lon="3.43999">
        <ele>18.4</ele>
        <time>2016-07-31T07:45:16Z</time>
      </trkpt>
      <trkpt lat="50.39303" lon="3.44012">
        <ele>17.92</ele>
        <time>2016-07-31T07:45:24Z</time>
      </trkpt>
      <trkpt lat="50.39308" lon="3.44024">
        <ele>18.88</ele>
        <time>2016-07-31T07:45:31Z</time>
      </trkpt>
      <trkpt lat="50.39316" lon="3.44035">
        <ele>18.88</ele>
        <time>2016-07-31T07:45:38Z</time>
      </trkpt>
      <trkpt lat="50.39321" lon="3.44047">
        <ele>18.88</ele>
        <time>2016-07-31T07:45:45Z</time>
      </trkpt>
      <trkpt lat="50.39326" lon="3.44061">
        <ele>18.88</ele>
        <time>2016-07-31T07:45:54Z</time>
      </trkpt>
      <trkpt lat="50.3933" lon="3.44074">
        <ele>19.36</ele>
        <time>2016-07-31T07:46:02Z</time>
      </trkpt>
      <trkpt lat="50.39334" lon="3.44089">
        <ele>18.88</ele>
        <time>2016-07-31T07:46:10Z</time>
      </trkpt>
      <trkpt lat="50.3934" lon="3.44102">
        <ele>19.84</ele>
        <time>2016-07-31T07:46:18Z</time>
      </trkpt>
      <trkpt lat="50.39346" lon="3.44115">
        <ele>19.84</ele>
        <time>2016-07-31T07:46:25Z</time>
      </trkpt>
      <trkpt lat="50.39353" lon="3.44127">
        <ele>19.84</ele>
        <time>2016-07-31T07:46:32Z</time>
      </trkpt>
      <trkpt lat="50.39358" lon="3.44142">
        <ele>19.84</ele>
        <time>2016-07-31T07:46:41Z</time>
      </trkpt>
      <trkpt lat="50.39363" lon="3.44154">
        <ele>19.84</ele>
        <time>2016-07-31T07:46:48Z</time>
      </trkpt>
      <trkpt lat="50.39367" lon="3.44171">
        <ele>20.32</ele>
        <time>2016-07-31T07:46:57Z</time>
      </trkpt>
      <trkpt lat="50.39374" lon="3.44186">
        <ele>19.36</ele>
        <time>2016-07-31T07:47:06Z</time>
      </trkpt>
      <trkpt lat="50.39378" lon="3.442">
        <ele>19.84</ele>
        <time>2016-07-31T07:47:14Z</time>
      </trkpt>
      <trkpt lat="50.39383" lon="3.44215">
        <ele>19.84</ele>
        <time>2016-07-31T07:47:22Z</time>
      </trkpt>
      <trkpt lat="50.39387" lon="3.44228">
        <ele>20.32</ele>
        <time>2016-07-31T07:47:29Z</time>
      </trkpt>
      <trkpt lat="50.39391" lon="3.4424">
        <ele>20.32</ele>
        <time>2016-07-31T07:47:49Z</time>
      </trkpt>
      <trkpt lat="50.39396" lon="3.44254">
        <ele>20.32</ele>
        <time>2016-07-31T07:47:57Z</time>
      </trkpt>
      <trkpt lat="50.39402" lon="3.44267">
        <ele>20.81</ele>
        <time>2016-07-31T07:48:05Z</time>
      </trkpt>
      <trkpt lat="50.3941" lon="3.4428">
        <ele>20.32</ele>
        <time>2016-07-31T07:48:12Z</time>
      </trkpt>
      <trkpt lat="50.39416" lon="3.44292">
        <ele>20.32</ele>
        <time>2016-07-31T07:48:20Z</time>
      </trkpt>
      <trkpt lat="50.39421" lon="3.44306">
        <ele>20.32</ele>
        <time>2016-07-31T07:48:28Z</time>
      </trkpt>
      <trkpt lat="50.39426" lon="3.44319">
        <ele>20.32</ele>
        <time>2016-07-31T07:48:36Z</time>
      </trkpt>
      <trkpt lat="50.39434" lon="3.44331">
        <ele>20.32</ele>
        <time>2016-07-31T07:48:43Z</time>
      </trkpt>
      <trkpt lat="50.39445" lon="3.44341">
        <ele>20.32</ele>
        <time>2016-07-31T07:48:51Z</time>
      </trkpt>
      <trkpt lat="50.39449" lon="3.44357">
        <ele>20.32</ele>
        <time>2016-07-31T07:49:01Z</time>
      </trkpt>
      <trkpt lat="50.39454" lon="3.44372">
        <ele>20.81</ele>
        <time>2016-07-31T07:49:10Z</time>
      </trkpt>
      <trkpt lat="50.39457" lon="3.44389">
        <ele>20.81</ele>
        <time>2016-07-31T07:49:26Z</time>
      </trkpt>
      <trkpt lat="50.3946" lon="3.44406">
        <ele>20.81</ele>
        <time>2016-07-31T07:49:34Z</time>
      </trkpt>
      <trkpt lat="50.39466" lon="3.44421">
        <ele>20.81</ele>
        <time>2016-07-31T07:49:41Z</time>
      </trkpt>
      <trkpt lat="50.39471" lon="3.44432">
        <ele>20.81</ele>
        <time>2016-07-31T07:49:47Z</time>
      </trkpt>
      <trkpt lat="50.39479" lon="3.44441">
        <ele>20.81</ele>
        <time>2016-07-31T07:49:53Z</time>
      </trkpt>
      <trkpt lat="50.39485" lon="3.44452">
        <ele>21.29</ele>
        <time>2016-07-31T07:50:00Z</time>
      </trkpt>
      <trkpt lat="50.39487" lon="3.44467">
        <ele>21.29</ele>
        <time>2016-07-31T07:50:08Z</time>
      </trkpt>
      <trkpt lat="50.39491" lon="3.44481">
        <ele>21.77</ele>
        <time>2016-07-31T07:50:16Z</time>
      </trkpt>
      <trkpt lat="50.39496" lon="3.44495">
        <ele>21.29</ele>
        <time>2016-07-31T07:50:23Z</time>
      </trkpt>
      <trkpt lat="50.395" lon="3.44508">
        <ele>21.77</ele>
        <time>2016-07-31T07:50:30Z</time>
      </trkpt>
      <trkpt lat="50.39505" lon="3.44519">
        <ele>21.77</ele>
        <time>2016-07-31T07:50:36Z</time>
      </trkpt>
      <trkpt lat="50.39509" lon="3.44531">
        <ele>21.77</ele>
        <time>2016-07-31T07:50:43Z</time>
      </trkpt>
      <trkpt lat="50.39513" lon="3.44545">
        <ele>22.25</ele>
        <time>2016-07-31T07:50:51Z</time>
      </trkpt>
      <trkpt lat="50.39516" lon="3.4456">
        <ele>22.25</ele>
        <time>2016-07-31T07:50:59Z</time>
      </trkpt>
      <trkpt lat="50.39518" lon="3.44574">
        <ele>22.25</ele>
        <time>2016-07-31T07:51:07Z</time>
      </trkpt>
      <trkpt lat="50.39523" lon="3.44586">
        <ele>22.25</ele>
        <time>2016-07-31T07:51:14Z</time>
      </trkpt>
      <trkpt lat="50.3953" lon="3.44598">
        <ele>22.25</ele>
        <time>2016-07-31T07:51:21Z</time>
      </trkpt>
      <trkpt lat="50.39536" lon="3.44609">
        <ele>22.25</ele>
        <time>2016-07-31T07:51:28Z</time>
      </trkpt>
      <trkpt lat="50.39542" lon="3.44621">
        <ele>22.73</ele>
        <time>2016-07-31T07:51:35Z</time>
      </trkpt>
      <trkpt lat="50.39547" lon="3.44636">
        <ele>22.73</ele>
        <time>2016-07-31T07:51:43Z</time>
      </trkpt>
      <trkpt lat="50.39551" lon="3.44649">
        <ele>22.73</ele>
        <time>2016-07-31T07:51:51Z</time>
      </trkpt>
      <trkpt lat="50.39553" lon="3.44666">
        <ele>23.21</ele>
        <time>2016-07-31T07:51:59Z</time>
      </trkpt>
      <trkpt lat="50.39556" lon="3.44679">
        <ele>23.21</ele>
        <time>2016-07-31T07:52:06Z</time>
      </trkpt>
      <trkpt lat="50.39562" lon="3.44691">
        <ele>23.69</ele>
        <time>2016-07-31T07:52:13Z</time>
      </trkpt>
      <trkpt lat="50.39574" lon="3.447">
        <ele>23.21</ele>
        <time>2016-07-31T07:52:21Z</time>
      </trkpt>
      <trkpt lat="50.39583" lon="3.44712">
        <ele>23.69</ele>
        <time>2016-07-31T07:52:29Z</time>
      </trkpt>
      <trkpt lat="50.39588" lon="3.44722">
        <ele>23.21</ele>
        <time>2016-07-31T07:52:53Z</time>
      </trkpt>
      <trkpt lat="50.39601" lon="3.44716">
        <ele>23.69</ele>
        <time>2016-07-31T07:53:11Z</time>
      </trkpt>
      <trkpt lat="50.39611" lon="3.44714">
        <ele>24.17</ele>
        <time>2016-07-31T07:53:20Z</time>
      </trkpt>
      <trkpt lat="50.3962" lon="3.44721">
        <ele>24.17</ele>
        <time>2016-07-31T07:53:29Z</time>
      </trkpt>
      <trkpt lat="50.39627" lon="3.4473">
        <ele>22.73</ele>
        <time>2016-07-31T07:53:37Z</time>
      </trkpt>
      <trkpt lat="50.39634" lon="3.44736">
        <ele>21.77</ele>
        <time>2016-07-31T07:53:52Z</time>
      </trkpt>
      <trkpt lat="50.39641" lon="3.44734">
        <ele>22.25</ele>
        <time>2016-07-31T07:54:17Z</time>
      </trkpt>
      <trkpt lat="50.39659" lon="3.44701">
        <ele>24.17</ele>
        <time>2016-07-31T07:54:33Z</time>
      </trkpt>
      <trkpt lat="50.39657" lon="3.44687">
        <ele>25.61</ele>
        <time>2016-07-31T07:54:44Z</time>
      </trkpt>
      <trkpt lat="50.39652" lon="3.44675">
        <ele>27.53</ele>
        <time>2016-07-31T07:55:42Z</time>
      </trkpt>
      <trkpt lat="50.39644" lon="3.44664">
        <ele>28.02</ele>
        <time>2016-07-31T07:56:05Z</time>
      </trkpt>
      <trkpt lat="50.39636" lon="3.44648">
        <ele>29.94</ele>
        <time>2016-07-31T07:56:16Z</time>
      </trkpt>
      <trkpt lat="50.39628" lon="3.44634">
        <ele>31.86</ele>
        <time>2016-07-31T07:56:29Z</time>
      </trkpt>
      <trkpt lat="50.39635" lon="3.44633">
        <ele>33.3</ele>
        <time>2016-07-31T07:56:45Z</time>
      </trkpt>
      <trkpt lat="50.39645" lon="3.44636">
        <ele>34.74</ele>
        <time>2016-07-31T07:56:55Z</time>
      </trkpt>
      <trkpt lat="50.39656" lon="3.44638">
        <ele>36.67</ele>
        <time>2016-07-31T07:57:02Z</time>
      </trkpt>
      <trkpt lat="50.39667" lon="3.44637">
        <ele>38.11</ele>
        <time>2016-07-31T07:57:10Z</time>
      </trkpt>
      <trkpt lat="50.39673" lon="3.44634">
        <ele>39.55</ele>
        <time>2016-07-31T07:57:34Z</time>
      </trkpt>
      <trkpt lat="50.39683" lon="3.44628">
        <ele>38.59</ele>
        <time>2016-07-31T07:57:42Z</time>
      </trkpt>
      <trkpt lat="50.39691" lon="3.44621">
        <ele>38.59</ele>
        <time>2016-07-31T07:57:49Z</time>
      </trkpt>
      <trkpt lat="50.397" lon="3.44614">
        <ele>38.11</ele>
        <time>2016-07-31T07:57:58Z</time>
      </trkpt>
      <trkpt lat="50.3971" lon="3.44608">
        <ele>37.15</ele>
        <time>2016-07-31T07:58:05Z</time>
      </trkpt>
      <trkpt lat="50.39719" lon="3.44597">
        <ele>36.67</ele>
        <time>2016-07-31T07:58:16Z</time>
      </trkpt>
      <trkpt lat="50.39729" lon="3.44588">
        <ele>37.15</ele>
        <time>2016-07-31T07:58:36Z</time>
      </trkpt>
      <trkpt lat="50.39736" lon="3.44573">
        <ele>37.15</ele>
        <time>2016-07-31T07:58:45Z</time>
      </trkpt>
      <trkpt lat="50.39738" lon="3.44556">
        <ele>37.15</ele>
        <time>2016-07-31T07:58:53Z</time>
      </trkpt>
      <trkpt lat="50.39735" lon="3.44542">
        <ele>37.15</ele>
        <time>2016-07-31T07:59:01Z</time>
      </trkpt>
      <trkpt lat="50.3973" lon="3.44529">
        <ele>36.67</ele>
        <time>2016-07-31T07:59:09Z</time>
      </trkpt>
      <trkpt lat="50.39724" lon="3.44515">
        <ele>36.67</ele>
        <time>2016-07-31T07:59:17Z</time>
      </trkpt>
      <trkpt lat="50.39718" lon="3.445">
        <ele>36.67</ele>
        <time>2016-07-31T07:59:26Z</time>
      </trkpt>
      <trkpt lat="50.39712" lon="3.44486">
        <ele>36.67</ele>
        <time>2016-07-31T07:59:36Z</time>
      </trkpt>
      <trkpt lat="50.39702" lon="3.4448">
        <ele>36.67</ele>
        <time>2016-07-31T07:59:45Z</time>
      </trkpt>
      <trkpt lat="50.39694" lon="3.44467">
        <ele>36.67</ele>
        <time>2016-07-31T07:59:54Z</time>
      </trkpt>
      <trkpt lat="50.39688" lon="3.44453">
        <ele>36.67</ele>
        <time>2016-07-31T08:00:03Z</time>
      </trkpt>
      <trkpt lat="50.39682" lon="3.44438">
        <ele>36.67</ele>
        <time>2016-07-31T08:00:11Z</time>
      </trkpt>
      <trkpt lat="50.39677" lon="3.44423">
        <ele>36.19</ele>
        <time>2016-07-31T08:00:20Z</time>
      </trkpt>
      <trkpt lat="50.39671" lon="3.44409">
        <ele>36.67</ele>
        <time>2016-07-31T08:00:29Z</time>
      </trkpt>
      <trkpt lat="50.39665" lon="3.44396">
        <ele>36.19</ele>
        <time>2016-07-31T08:00:39Z</time>
      </trkpt>
      <trkpt lat="50.3966" lon="3.44384">
        <ele>35.71</ele>
        <time>2016-07-31T08:00:49Z</time>
      </trkpt>
      <trkpt lat="50.39654" lon="3.44372">
        <ele>36.19</ele>
        <time>2016-07-31T08:00:59Z</time>
      </trkpt>
      <trkpt lat="50.39651" lon="3.4436">
        <ele>36.19</ele>
        <time>2016-07-31T08:01:42Z</time>
      </trkpt>
      <trkpt lat="50.39647" lon="3.44362">
        <ele>36.67</ele>
        <time>2016-07-31T08:02:44Z</time>
      </trkpt>
      <trkpt lat="50.3964" lon="3.44366">
        <ele>37.63</ele>
        <time>2016-07-31T08:02:55Z</time>
      </trkpt>
      <trkpt lat="50.3964" lon="3.44356">
        <ele>36.67</ele>
        <time>2016-07-31T08:03:17Z</time>
      </trkpt>
      <trkpt lat="50.39647" lon="3.44359">
        <ele>37.15</ele>
        <time>2016-07-31T08:03:48Z</time>
      </trkpt>
      <trkpt lat="50.39647" lon="3.44362">
        <ele>36.67</ele>
        <time>2016-07-31T08:04:27Z</time>
      </trkpt>
      <trkpt lat="50.39646" lon="3.44356">
        <ele>36.67</ele>
        <time>2016-07-31T08:04:59Z</time>
      </trkpt>
      <trkpt lat="50.39638" lon="3.44349">
        <ele>36.67</ele>
        <time>2016-07-31T08:05:07Z</time>
      </trkpt>
      <trkpt lat="50.39634" lon="3.44334">
        <ele>36.67</ele>
        <time>2016-07-31T08:05:15Z</time>
      </trkpt>
      <trkpt lat="50.3963" lon="3.4432">
        <ele>37.15</ele>
        <time>2016-07-31T08:05:22Z</time>
      </trkpt>
      <trkpt lat="50.39627" lon="3.44306">
        <ele>37.15</ele>
        <time>2016-07-31T08:05:29Z</time>
      </trkpt>
      <trkpt lat="50.39629" lon="3.443">
        <ele>36.19</ele>
        <time>2016-07-31T08:05:43Z</time>
      </trkpt>
      <trkpt lat="50.39632" lon="3.44313">
        <ele>36.67</ele>
        <time>2016-07-31T08:05:54Z</time>
      </trkpt>
      <trkpt lat="50.39635" lon="3.44327">
        <ele>37.15</ele>
        <time>2016-07-31T08:06:01Z</time>
      </trkpt>
      <trkpt lat="50.39639" lon="3.44343">
        <ele>37.15</ele>
        <time>2016-07-31T08:06:10Z</time>
      </trkpt>
      <trkpt lat="50.39643" lon="3.44356">
        <ele>36.19</ele>
        <time>2016-07-31T08:06:20Z</time>
      </trkpt>
      <trkpt lat="50.3965" lon="3.44365">
        <ele>36.19</ele>
        <time>2016-07-31T08:06:45Z</time>
      </trkpt>
      <trkpt lat="50.39651" lon="3.44367">
        <ele>36.19</ele>
        <time>2016-07-31T08:07:43Z</time>
      </trkpt>
      <trkpt lat="50.39656" lon="3.44379">
        <ele>35.71</ele>
        <time>2016-07-31T08:08:04Z</time>
      </trkpt>
      <trkpt lat="50.39665" lon="3.44395">
        <ele>35.71</ele>
        <time>2016-07-31T08:08:13Z</time>
      </trkpt>
      <trkpt lat="50.39671" lon="3.44409">
        <ele>35.71</ele>
        <time>2016-07-31T08:08:24Z</time>
      </trkpt>
      <trkpt lat="50.39678" lon="3.44418">
        <ele>35.23</ele>
        <time>2016-07-31T08:08:45Z</time>
      </trkpt>
      <trkpt lat="50.39685" lon="3.44431">
        <ele>33.3</ele>
        <time>2016-07-31T08:08:57Z</time>
      </trkpt>
      <trkpt lat="50.39692" lon="3.44444">
        <ele>32.34</ele>
        <time>2016-07-31T08:09:07Z</time>
      </trkpt>
      <trkpt lat="50.39699" lon="3.44455">
        <ele>30.9</ele>
        <time>2016-07-31T08:09:17Z</time>
      </trkpt>
      <trkpt lat="50.39708" lon="3.44461">
        <ele>28.98</ele>
        <time>2016-07-31T08:09:28Z</time>
      </trkpt>
      <trkpt lat="50.3971" lon="3.44449">
        <ele>26.57</ele>
        <time>2016-07-31T08:09:39Z</time>
      </trkpt>
      <trkpt lat="50.39706" lon="3.44431">
        <ele>24.65</ele>
        <time>2016-07-31T08:09:48Z</time>
      </trkpt>
      <trkpt lat="50.39703" lon="3.44417">
        <ele>23.21</ele>
        <time>2016-07-31T08:09:57Z</time>
      </trkpt>
      <trkpt lat="50.397" lon="3.44402">
        <ele>21.29</ele>
        <time>2016-07-31T08:10:06Z</time>
      </trkpt>
      <trkpt lat="50.39699" lon="3.44387">
        <ele>19.36</ele>
        <time>2016-07-31T08:10:16Z</time>
      </trkpt>
      <trkpt lat="50.39697" lon="3.44372">
        <ele>17.92</ele>
        <time>2016-07-31T08:10:24Z</time>
      </trkpt>
      <trkpt lat="50.39701" lon="3.44356">
        <ele>16.48</ele>
        <time>2016-07-31T08:10:34Z</time>
      </trkpt>
      <trkpt lat="50.39704" lon="3.44348">
        <ele>16</ele>
        <time>2016-07-31T08:11:08Z</time>
      </trkpt>
      <trkpt lat="50.39709" lon="3.44348">
        <ele>16.96</ele>
        <time>2016-07-31T08:12:08Z</time>
      </trkpt>
      <trkpt lat="50.39718" lon="3.4435">
        <ele>16.48</ele>
        <time>2016-07-31T08:12:18Z</time>
      </trkpt>
      <trkpt lat="50.39729" lon="3.44355">
        <ele>16.48</ele>
        <time>2016-07-31T08:12:34Z</time>
      </trkpt>
      <trkpt lat="50.39736" lon="3.44353">
        <ele>16</ele>
        <time>2016-07-31T08:12:51Z</time>
      </trkpt>
      <trkpt lat="50.39746" lon="3.44349">
        <ele>16.48</ele>
        <time>2016-07-31T08:12:59Z</time>
      </trkpt>
      <trkpt lat="50.39756" lon="3.44348">
        <ele>16</ele>
        <time>2016-07-31T08:13:07Z</time>
      </trkpt>
      <trkpt lat="50.39767" lon="3.44347">
        <ele>16</ele>
        <time>2016-07-31T08:13:15Z</time>
      </trkpt>
      <trkpt lat="50.39779" lon="3.44348">
        <ele>16</ele>
        <time>2016-07-31T08:13:23Z</time>
      </trkpt>
      <trkpt lat="50.3979" lon="3.44349">
        <ele>16.48</ele>
        <time>2016-07-31T08:13:32Z</time>
      </trkpt>
      <trkpt lat="50.39802" lon="3.44348">
        <ele>16.48</ele>
        <time>2016-07-31T08:13:41Z</time>
      </trkpt>
      <trkpt lat="50.39813" lon="3.4435">
        <ele>16</ele>
        <time>2016-07-31T08:13:50Z</time>
      </trkpt>
      <trkpt lat="50.39823" lon="3.44351">
        <ele>15.52</ele>
        <time>2016-07-31T08:13:58Z</time>
      </trkpt>
      <trkpt lat="50.39834" lon="3.44352">
        <ele>16</ele>
        <time>2016-07-31T08:14:06Z</time>
      </trkpt>
      <trkpt lat="50.39845" lon="3.44352">
        <ele>16</ele>
        <time>2016-07-31T08:14:15Z</time>
      </trkpt>
      <trkpt lat="50.39855" lon="3.44349">
        <ele>15.52</ele>
        <time>2016-07-31T08:14:23Z</time>
      </trkpt>
      <trkpt lat="50.39865" lon="3.44343">
        <ele>15.52</ele>
        <time>2016-07-31T08:14:31Z</time>
      </trkpt>
      <trkpt lat="50.39874" lon="3.44338">
        <ele>16</ele>
        <time>2016-07-31T08:14:39Z</time>
      </trkpt>
      <trkpt lat="50.39884" lon="3.44334">
        <ele>15.52</ele>
        <time>2016-07-31T08:14:48Z</time>
      </trkpt>
      <trkpt lat="50.39897" lon="3.44332">
        <ele>14.56</ele>
        <time>2016-07-31T08:14:59Z</time>
      </trkpt>
      <trkpt lat="50.39908" lon="3.44329">
        <ele>16</ele>
        <time>2016-07-31T08:15:14Z</time>
      </trkpt>
      <trkpt lat="50.39919" lon="3.44326">
        <ele>16</ele>
        <time>2016-07-31T08:15:23Z</time>
      </trkpt>
      <trkpt lat="50.39928" lon="3.44324">
        <ele>16</ele>
        <time>2016-07-31T08:15:30Z</time>
      </trkpt>
      <trkpt lat="50.39938" lon="3.44324">
        <ele>16.48</ele>
        <time>2016-07-31T08:15:38Z</time>
      </trkpt>
      <trkpt lat="50.39947" lon="3.44323">
        <ele>16</ele>
        <time>2016-07-31T08:15:45Z</time>
      </trkpt>
      <trkpt lat="50.39958" lon="3.44322">
        <ele>16.48</ele>
        <time>2016-07-31T08:15:53Z</time>
      </trkpt>
      <trkpt lat="50.39968" lon="3.44323">
        <ele>16.48</ele>
        <time>2016-07-31T08:16:02Z</time>
      </trkpt>
      <trkpt lat="50.39979" lon="3.44322">
        <ele>16</ele>
        <time>2016-07-31T08:16:10Z</time>
      </trkpt>
      <trkpt lat="50.3999" lon="3.4432">
        <ele>16.48</ele>
        <time>2016-07-31T08:16:18Z</time>
      </trkpt>
      <trkpt lat="50.40001" lon="3.4432">
        <ele>16</ele>
        <time>2016-07-31T08:16:26Z</time>
      </trkpt>
      <trkpt lat="50.40012" lon="3.44319">
        <ele>16</ele>
        <time>2016-07-31T08:16:34Z</time>
      </trkpt>
      <trkpt lat="50.40022" lon="3.44317">
        <ele>16.48</ele>
        <time>2016-07-31T08:16:41Z</time>
      </trkpt>
      <trkpt lat="50.40034" lon="3.44314">
        <ele>16.48</ele>
        <time>2016-07-31T08:16:50Z</time>
      </trkpt>
      <trkpt lat="50.40045" lon="3.44314">
        <ele>16.48</ele>
        <time>2016-07-31T08:16:58Z</time>
      </trkpt>
      <trkpt lat="50.40057" lon="3.44314">
        <ele>16.48</ele>
        <time>2016-07-31T08:17:07Z</time>
      </trkpt>
      <trkpt lat="50.40068" lon="3.44313">
        <ele>16.96</ele>
        <time>2016-07-31T08:17:16Z</time>
      </trkpt>
      <trkpt lat="50.40078" lon="3.44312">
        <ele>16.48</ele>
        <time>2016-07-31T08:17:23Z</time>
      </trkpt>
      <trkpt lat="50.4009" lon="3.44312">
        <ele>16</ele>
        <time>2016-07-31T08:17:31Z</time>
      </trkpt>
      <trkpt lat="50.40101" lon="3.44311">
        <ele>16.48</ele>
        <time>2016-07-31T08:17:40Z</time>
      </trkpt>
      <trkpt lat="50.40111" lon="3.44308">
        <ele>16.48</ele>
        <time>2016-07-31T08:17:48Z</time>
      </trkpt>
      <trkpt lat="50.40121" lon="3.44308">
        <ele>16.48</ele>
        <time>2016-07-31T08:17:56Z</time>
      </trkpt>
      <trkpt lat="50.40131" lon="3.44307">
        <ele>16.96</ele>
        <time>2016-07-31T08:18:04Z</time>
      </trkpt>
      <trkpt lat="50.40144" lon="3.44307">
        <ele>16.48</ele>
        <time>2016-07-31T08:18:13Z</time>
      </trkpt>
      <trkpt lat="50.40156" lon="3.44305">
        <ele>16.48</ele>
        <time>2016-07-31T08:18:22Z</time>
      </trkpt>
      <trkpt lat="50.40169" lon="3.44306">
        <ele>16.96</ele>
        <time>2016-07-31T08:18:33Z</time>
      </trkpt>
      <trkpt lat="50.4018" lon="3.44303">
        <ele>16.48</ele>
        <time>2016-07-31T08:18:41Z</time>
      </trkpt>
      <trkpt lat="50.40189" lon="3.44304">
        <ele>16.48</ele>
        <time>2016-07-31T08:18:49Z</time>
      </trkpt>
      <trkpt lat="50.402" lon="3.44304">
        <ele>16.48</ele>
        <time>2016-07-31T08:18:59Z</time>
      </trkpt>
      <trkpt lat="50.40213" lon="3.44301">
        <ele>16.48</ele>
        <time>2016-07-31T08:19:08Z</time>
      </trkpt>
      <trkpt lat="50.40225" lon="3.44299">
        <ele>16.48</ele>
        <time>2016-07-31T08:19:17Z</time>
      </trkpt>
      <trkpt lat="50.40236" lon="3.44298">
        <ele>16.48</ele>
        <time>2016-07-31T08:19:27Z</time>
      </trkpt>
      <trkpt lat="50.40248" lon="3.44297">
        <ele>16.96</ele>
        <time>2016-07-31T08:19:36Z</time>
      </trkpt>
      <trkpt lat="50.40262" lon="3.44293">
        <ele>16.96</ele>
        <time>2016-07-31T08:19:46Z</time>
      </trkpt>
      <trkpt lat="50.40276" lon="3.44292">
        <ele>16.96</ele>
        <time>2016-07-31T08:19:57Z</time>
      </trkpt>
      <trkpt lat="50.40289" lon="3.4429">
        <ele>16.96</ele>
        <time>2016-07-31T08:20:07Z</time>
      </trkpt>
      <trkpt lat="50.40301" lon="3.44287">
        <ele>16.96</ele>
        <time>2016-07-31T08:20:16Z</time>
      </trkpt>
      <trkpt lat="50.40312" lon="3.44285">
        <ele>16.96</ele>
        <time>2016-07-31T08:20:24Z</time>
      </trkpt>
      <trkpt lat="50.40323" lon="3.44284">
        <ele>17.44</ele>
        <time>2016-07-31T08:20:34Z</time>
      </trkpt>
      <trkpt lat="50.40335" lon="3.44282">
        <ele>17.44</ele>
        <time>2016-07-31T08:20:44Z</time>
      </trkpt>
      <trkpt lat="50.40346" lon="3.4428">
        <ele>17.92</ele>
        <time>2016-07-31T08:21:01Z</time>
      </trkpt>
      <trkpt lat="50.40359" lon="3.44281">
        <ele>17.92</ele>
        <time>2016-07-31T08:21:15Z</time>
      </trkpt>
      <trkpt lat="50.4037" lon="3.44279">
        <ele>18.4</ele>
        <time>2016-07-31T08:21:26Z</time>
      </trkpt>
      <trkpt lat="50.40382" lon="3.44281">
        <ele>17.92</ele>
        <time>2016-07-31T08:21:41Z</time>
      </trkpt>
      <trkpt lat="50.40397" lon="3.4428">
        <ele>18.4</ele>
        <time>2016-07-31T08:21:53Z</time>
      </trkpt>
      <trkpt lat="50.40412" lon="3.44278">
        <ele>18.4</ele>
        <time>2016-07-31T08:22:06Z</time>
      </trkpt>
      <trkpt lat="50.40424" lon="3.44276">
        <ele>18.88</ele>
        <time>2016-07-31T08:22:17Z</time>
      </trkpt>
      <trkpt lat="50.40437" lon="3.4427">
        <ele>18.88</ele>
        <time>2016-07-31T08:22:29Z</time>
      </trkpt>
      <trkpt lat="50.40449" lon="3.44253">
        <ele>17.92</ele>
        <time>2016-07-31T08:22:39Z</time>
      </trkpt>
      <trkpt lat="50.40458" lon="3.44239">
        <ele>17.44</ele>
        <time>2016-07-31T08:22:48Z</time>
      </trkpt>
      <trkpt lat="50.40465" lon="3.44226">
        <ele>16.96</ele>
        <time>2016-07-31T08:22:59Z</time>
      </trkpt>
      <trkpt lat="50.40473" lon="3.44215">
        <ele>16.96</ele>
        <time>2016-07-31T08:23:07Z</time>
      </trkpt>
      <trkpt lat="50.4048" lon="3.442">
        <ele>17.44</ele>
        <time>2016-07-31T08:23:15Z</time>
      </trkpt>
      <trkpt lat="50.40489" lon="3.44192">
        <ele>16.48</ele>
        <time>2016-07-31T08:23:25Z</time>
      </trkpt>
      <trkpt lat="50.40496" lon="3.44179">
        <ele>16.96</ele>
        <time>2016-07-31T08:23:35Z</time>
      </trkpt>
      <trkpt lat="50.40508" lon="3.44165">
        <ele>16.96</ele>
        <time>2016-07-31T08:23:46Z</time>
      </trkpt>
      <trkpt lat="50.40519" lon="3.44157">
        <ele>16.48</ele>
        <time>2016-07-31T08:24:02Z</time>
      </trkpt>
      <trkpt lat="50.40536" lon="3.44147">
        <ele>16.48</ele>
        <time>2016-07-31T08:24:14Z</time>
      </trkpt>
      <trkpt lat="50.40553" lon="3.44136">
        <ele>16.96</ele>
        <time>2016-07-31T08:24:25Z</time>
      </trkpt>
      <trkpt lat="50.40567" lon="3.44131">
        <ele>16.96</ele>
        <time>2016-07-31T08:24:38Z</time>
      </trkpt>
      <trkpt lat="50.40579" lon="3.44125">
        <ele>16.96</ele>
        <time>2016-07-31T08:24:48Z</time>
      </trkpt>
      <trkpt lat="50.4059" lon="3.44118">
        <ele>16.96</ele>
        <time>2016-07-31T08:24:58Z</time>
      </trkpt>
      <trkpt lat="50.40605" lon="3.4411">
        <ele>16.48</ele>
        <time>2016-07-31T08:25:09Z</time>
      </trkpt>
      <trkpt lat="50.40617" lon="3.44104">
        <ele>16.48</ele>
        <time>2016-07-31T08:25:18Z</time>
      </trkpt>
      <trkpt lat="50.40628" lon="3.44096">
        <ele>16.48</ele>
        <time>2016-07-31T08:25:27Z</time>
      </trkpt>
      <trkpt lat="50.40635" lon="3.44086">
        <ele>16.48</ele>
        <time>2016-07-31T08:25:34Z</time>
      </trkpt>
      <trkpt lat="50.40643" lon="3.44074">
        <ele>16.48</ele>
        <time>2016-07-31T08:25:42Z</time>
      </trkpt>
      <trkpt lat="50.40649" lon="3.4406">
        <ele>16.48</ele>
        <time>2016-07-31T08:25:51Z</time>
      </trkpt>
      <trkpt lat="50.40649" lon="3.44044">
        <ele>16</ele>
        <time>2016-07-31T08:25:59Z</time>
      </trkpt>
      <trkpt lat="50.40644" lon="3.44033">
        <ele>16</ele>
        <time>2016-07-31T08:26:07Z</time>
      </trkpt>
      <trkpt lat="50.40638" lon="3.4402">
        <ele>16</ele>
        <time>2016-07-31T08:26:16Z</time>
      </trkpt>
      <trkpt lat="50.40633" lon="3.44008">
        <ele>16.48</ele>
        <time>2016-07-31T08:26:24Z</time>
      </trkpt>
      <trkpt lat="50.40625" lon="3.43996">
        <ele>16</ele>
        <time>2016-07-31T08:26:33Z</time>
      </trkpt>
      <trkpt lat="50.40618" lon="3.43983">
        <ele>16</ele>
        <time>2016-07-31T08:26:42Z</time>
      </trkpt>
      <trkpt lat="50.40613" lon="3.43971">
        <ele>15.52</ele>
        <time>2016-07-31T08:26:50Z</time>
      </trkpt>
      <trkpt lat="50.40607" lon="3.43958">
        <ele>15.52</ele>
        <time>2016-07-31T08:26:58Z</time>
      </trkpt>
      <trkpt lat="50.406" lon="3.43945">
        <ele>15.52</ele>
        <time>2016-07-31T08:27:07Z</time>
      </trkpt>
      <trkpt lat="50.40593" lon="3.43932">
        <ele>15.52</ele>
        <time>2016-07-31T08:27:15Z</time>
      </trkpt>
      <trkpt lat="50.40588" lon="3.43919">
        <ele>16</ele>
        <time>2016-07-31T08:27:23Z</time>
      </trkpt>
      <trkpt lat="50.40582" lon="3.43905">
        <ele>16</ele>
        <time>2016-07-31T08:27:33Z</time>
      </trkpt>
      <trkpt lat="50.40575" lon="3.43891">
        <ele>16</ele>
        <time>2016-07-31T08:27:42Z</time>
      </trkpt>
      <trkpt lat="50.40567" lon="3.43877">
        <ele>15.52</ele>
        <time>2016-07-31T08:27:52Z</time>
      </trkpt>
      <trkpt lat="50.40561" lon="3.43865">
        <ele>16</ele>
        <time>2016-07-31T08:28:00Z</time>
      </trkpt>
      <trkpt lat="50.40555" lon="3.4385">
        <ele>16</ele>
        <time>2016-07-31T08:28:09Z</time>
      </trkpt>
      <trkpt lat="50.40549" lon="3.43833">
        <ele>16</ele>
        <time>2016-07-31T08:28:18Z</time>
      </trkpt>
      <trkpt lat="50.40543" lon="3.43819">
        <ele>16</ele>
        <time>2016-07-31T08:28:27Z</time>
      </trkpt>
      <trkpt lat="50.40537" lon="3.43806">
        <ele>16</ele>
        <time>2016-07-31T08:28:36Z</time>
      </trkpt>
      <trkpt lat="50.40528" lon="3.43796">
        <ele>15.52</ele>
        <time>2016-07-31T08:28:44Z</time>
      </trkpt>
      <trkpt lat="50.4052" lon="3.43783">
        <ele>16.48</ele>
        <time>2016-07-31T08:28:52Z</time>
      </trkpt>
      <trkpt lat="50.40513" lon="3.43769">
        <ele>16</ele>
        <time>2016-07-31T08:29:00Z</time>
      </trkpt>
      <trkpt lat="50.40507" lon="3.43758">
        <ele>16.48</ele>
        <time>2016-07-31T08:29:08Z</time>
      </trkpt>
      <trkpt lat="50.40503" lon="3.43744">
        <ele>16.48</ele>
        <time>2016-07-31T08:29:16Z</time>
      </trkpt>
      <trkpt lat="50.40498" lon="3.4373">
        <ele>16.48</ele>
        <time>2016-07-31T08:29:24Z</time>
      </trkpt>
      <trkpt lat="50.40492" lon="3.43716">
        <ele>16.48</ele>
        <time>2016-07-31T08:29:32Z</time>
      </trkpt>
      <trkpt lat="50.40485" lon="3.43703">
        <ele>16.96</ele>
        <time>2016-07-31T08:29:41Z</time>
      </trkpt>
      <trkpt lat="50.40478" lon="3.43689">
        <ele>16.48</ele>
        <time>2016-07-31T08:29:50Z</time>
      </trkpt>
      <trkpt lat="50.40471" lon="3.43676">
        <ele>16.48</ele>
        <time>2016-07-31T08:29:59Z</time>
      </trkpt>
      <trkpt lat="50.40465" lon="3.43664">
        <ele>16.96</ele>
        <time>2016-07-31T08:30:07Z</time>
      </trkpt>
      <trkpt lat="50.40458" lon="3.4365">
        <ele>16.96</ele>
        <time>2016-07-31T08:30:16Z</time>
      </trkpt>
      <trkpt lat="50.40452" lon="3.43636">
        <ele>16.48</ele>
        <time>2016-07-31T08:30:24Z</time>
      </trkpt>
      <trkpt lat="50.40447" lon="3.43621">
        <ele>16.96</ele>
        <time>2016-07-31T08:30:32Z</time>
      </trkpt>
      <trkpt lat="50.40441" lon="3.43609">
        <ele>16.96</ele>
        <time>2016-07-31T08:30:40Z</time>
      </trkpt>
      <trkpt lat="50.40434" lon="3.43597">
        <ele>16.48</ele>
        <time>2016-07-31T08:30:48Z</time>
      </trkpt>
      <trkpt lat="50.40429" lon="3.43585">
        <ele>16.48</ele>
        <time>2016-07-31T08:30:58Z</time>
      </trkpt>
      <trkpt lat="50.40423" lon="3.43573">
        <ele>16</ele>
        <time>2016-07-31T08:31:12Z</time>
      </trkpt>
      <trkpt lat="50.40418" lon="3.43558">
        <ele>16.48</ele>
        <time>2016-07-31T08:31:21Z</time>
      </trkpt>
      <trkpt lat="50.40412" lon="3.43543">
        <ele>16.48</ele>
        <time>2016-07-31T08:31:30Z</time>
      </trkpt>
      <trkpt lat="50.40404" lon="3.43529">
        <ele>16.48</ele>
        <time>2016-07-31T08:31:40Z</time>
      </trkpt>
      <trkpt lat="50.40395" lon="3.43512">
        <ele>18.4</ele>
        <time>2016-07-31T08:31:49Z</time>
      </trkpt>
      <trkpt lat="50.40388" lon="3.43498">
        <ele>16.48</ele>
        <time>2016-07-31T08:31:58Z</time>
      </trkpt>
      <trkpt lat="50.40381" lon="3.43487">
        <ele>16.48</ele>
        <time>2016-07-31T08:32:06Z</time>
      </trkpt>
      <trkpt lat="50.40373" lon="3.43473">
        <ele>16</ele>
        <time>2016-07-31T08:32:15Z</time>
      </trkpt>
      <trkpt lat="50.40367" lon="3.4346">
        <ele>16.48</ele>
        <time>2016-07-31T08:32:23Z</time>
      </trkpt>
      <trkpt lat="50.40361" lon="3.43445">
        <ele>16.96</ele>
        <time>2016-07-31T08:32:31Z</time>
      </trkpt>
      <trkpt lat="50.40355" lon="3.43432">
        <ele>16.48</ele>
        <time>2016-07-31T08:32:39Z</time>
      </trkpt>
      <trkpt lat="50.40349" lon="3.43419">
        <ele>16.48</ele>
        <time>2016-07-31T08:32:46Z</time>
      </trkpt>
      <trkpt lat="50.40343" lon="3.43405">
        <ele>16.48</ele>
        <time>2016-07-31T08:32:55Z</time>
      </trkpt>
      <trkpt lat="50.40337" lon="3.43391">
        <ele>16.48</ele>
        <time>2016-07-31T08:33:04Z</time>
      </trkpt>
      <trkpt lat="50.40329" lon="3.43379">
        <ele>16.48</ele>
        <time>2016-07-31T08:33:12Z</time>
      </trkpt>
      <trkpt lat="50.40322" lon="3.43367">
        <ele>16.48</ele>
        <time>2016-07-31T08:33:20Z</time>
      </trkpt>
      <trkpt lat="50.40317" lon="3.43353">
        <ele>16</ele>
        <time>2016-07-31T08:33:28Z</time>
      </trkpt>
      <trkpt lat="50.40311" lon="3.43339">
        <ele>16</ele>
        <time>2016-07-31T08:33:37Z</time>
      </trkpt>
      <trkpt lat="50.40303" lon="3.43325">
        <ele>16.48</ele>
        <time>2016-07-31T08:33:46Z</time>
      </trkpt>
      <trkpt lat="50.40297" lon="3.4331">
        <ele>16.48</ele>
        <time>2016-07-31T08:33:54Z</time>
      </trkpt>
      <trkpt lat="50.4029" lon="3.43297">
        <ele>16</ele>
        <time>2016-07-31T08:34:02Z</time>
      </trkpt>
      <trkpt lat="50.40284" lon="3.43283">
        <ele>16.48</ele>
        <time>2016-07-31T08:34:11Z</time>
      </trkpt>
      <trkpt lat="50.40277" lon="3.4327">
        <ele>16.96</ele>
        <time>2016-07-31T08:34:19Z</time>
      </trkpt>
      <trkpt lat="50.40273" lon="3.43256">
        <ele>16.48</ele>
        <time>2016-07-31T08:34:27Z</time>
      </trkpt>
      <trkpt lat="50.40266" lon="3.43243">
        <ele>16</ele>
        <time>2016-07-31T08:34:36Z</time>
      </trkpt>
      <trkpt lat="50.40259" lon="3.43231">
        <ele>16</ele>
        <time>2016-07-31T08:34:44Z</time>
      </trkpt>
      <trkpt lat="50.40252" lon="3.43218">
        <ele>16.96</ele>
        <time>2016-07-31T08:34:52Z</time>
      </trkpt>
      <trkpt lat="50.40246" lon="3.43204">
        <ele>16.48</ele>
        <time>2016-07-31T08:35:00Z</time>
      </trkpt>
      <trkpt lat="50.4024" lon="3.43193">
        <ele>16.48</ele>
        <time>2016-07-31T08:35:08Z</time>
      </trkpt>
      <trkpt lat="50.40233" lon="3.4318">
        <ele>16.48</ele>
        <time>2016-07-31T08:35:16Z</time>
      </trkpt>
      <trkpt lat="50.40227" lon="3.43168">
        <ele>16</ele>
        <time>2016-07-31T08:35:24Z</time>
      </trkpt>
      <trkpt lat="50.4022" lon="3.43154">
        <ele>16.48</ele>
        <time>2016-07-31T08:35:33Z</time>
      </trkpt>
      <trkpt lat="50.40215" lon="3.4314">
        <ele>16.48</ele>
        <time>2016-07-31T08:35:41Z</time>
      </trkpt>
      <trkpt lat="50.4021" lon="3.43126">
        <ele>16.48</ele>
        <time>2016-07-31T08:35:49Z</time>
      </trkpt>
      <trkpt lat="50.40204" lon="3.43112">
        <ele>16.48</ele>
        <time>2016-07-31T08:35:58Z</time>
      </trkpt>
      <trkpt lat="50.40198" lon="3.43099">
        <ele>16</ele>
        <time>2016-07-31T08:36:13Z</time>
      </trkpt>
      <trkpt lat="50.40192" lon="3.43085">
        <ele>16</ele>
        <time>2016-07-31T08:36:21Z</time>
      </trkpt>
      <trkpt lat="50.40184" lon="3.43072">
        <ele>16.48</ele>
        <time>2016-07-31T08:36:29Z</time>
      </trkpt>
      <trkpt lat="50.40178" lon="3.43058">
        <ele>16</ele>
        <time>2016-07-31T08:36:37Z</time>
      </trkpt>
      <trkpt lat="50.40173" lon="3.43045">
        <ele>16</ele>
        <time>2016-07-31T08:36:45Z</time>
      </trkpt>
      <trkpt lat="50.40166" lon="3.43032">
        <ele>16</ele>
        <time>2016-07-31T08:36:53Z</time>
      </trkpt>
      <trkpt lat="50.4016" lon="3.43019">
        <ele>16</ele>
        <time>2016-07-31T08:37:01Z</time>
      </trkpt>
      <trkpt lat="50.40154" lon="3.43006">
        <ele>15.52</ele>
        <time>2016-07-31T08:37:09Z</time>
      </trkpt>
      <trkpt lat="50.40162" lon="3.42996">
        <ele>15.52</ele>
        <time>2016-07-31T08:37:18Z</time>
      </trkpt>
      <trkpt lat="50.40172" lon="3.4299">
        <ele>16</ele>
        <time>2016-07-31T08:37:26Z</time>
      </trkpt>
      <trkpt lat="50.40182" lon="3.42986">
        <ele>16</ele>
        <time>2016-07-31T08:37:34Z</time>
      </trkpt>
      <trkpt lat="50.40191" lon="3.42983">
        <ele>16</ele>
        <time>2016-07-31T08:37:41Z</time>
      </trkpt>
      <trkpt lat="50.402" lon="3.42979">
        <ele>16</ele>
        <time>2016-07-31T08:37:50Z</time>
      </trkpt>
      <trkpt lat="50.4021" lon="3.42978">
        <ele>16.48</ele>
        <time>2016-07-31T08:37:57Z</time>
      </trkpt>
      <trkpt lat="50.40219" lon="3.42974">
        <ele>16</ele>
        <time>2016-07-31T08:38:04Z</time>
      </trkpt>
      <trkpt lat="50.40229" lon="3.42969">
        <ele>16</ele>
        <time>2016-07-31T08:38:12Z</time>
      </trkpt>
      <trkpt lat="50.40239" lon="3.42967">
        <ele>16</ele>
        <time>2016-07-31T08:38:19Z</time>
      </trkpt>
      <trkpt lat="50.40249" lon="3.42966">
        <ele>16</ele>
        <time>2016-07-31T08:38:27Z</time>
      </trkpt>
      <trkpt lat="50.40259" lon="3.42964">
        <ele>16.48</ele>
        <time>2016-07-31T08:38:35Z</time>
      </trkpt>
      <trkpt lat="50.40269" lon="3.4296">
        <ele>16</ele>
        <time>2016-07-31T08:38:43Z</time>
      </trkpt>
      <trkpt lat="50.40279" lon="3.42957">
        <ele>16</ele>
        <time>2016-07-31T08:38:51Z</time>
      </trkpt>
      <trkpt lat="50.40289" lon="3.42954">
        <ele>16</ele>
        <time>2016-07-31T08:38:59Z</time>
      </trkpt>
      <trkpt lat="50.40299" lon="3.42949">
        <ele>16</ele>
        <time>2016-07-31T08:39:07Z</time>
      </trkpt>
      <trkpt lat="50.40308" lon="3.42945">
        <ele>16</ele>
        <time>2016-07-31T08:39:14Z</time>
      </trkpt>
      <trkpt lat="50.40318" lon="3.42939">
        <ele>16</ele>
        <time>2016-07-31T08:39:22Z</time>
      </trkpt>
      <trkpt lat="50.40327" lon="3.42935">
        <ele>15.52</ele>
        <time>2016-07-31T08:39:29Z</time>
      </trkpt>
      <trkpt lat="50.40336" lon="3.42929">
        <ele>16</ele>
        <time>2016-07-31T08:39:36Z</time>
      </trkpt>
      <trkpt lat="50.40345" lon="3.42924">
        <ele>15.52</ele>
        <time>2016-07-31T08:39:43Z</time>
      </trkpt>
      <trkpt lat="50.40354" lon="3.42923">
        <ele>15.52</ele>
        <time>2016-07-31T08:39:50Z</time>
      </trkpt>
      <trkpt lat="50.40363" lon="3.42919">
        <ele>15.52</ele>
        <time>2016-07-31T08:39:57Z</time>
      </trkpt>
      <trkpt lat="50.40372" lon="3.42913">
        <ele>16</ele>
        <time>2016-07-31T08:40:05Z</time>
      </trkpt>
      <trkpt lat="50.40382" lon="3.42909">
        <ele>16</ele>
        <time>2016-07-31T08:40:13Z</time>
      </trkpt>
      <trkpt lat="50.40392" lon="3.42904">
        <ele>16.48</ele>
        <time>2016-07-31T08:40:21Z</time>
      </trkpt>
      <trkpt lat="50.40401" lon="3.42901">
        <ele>16</ele>
        <time>2016-07-31T08:40:28Z</time>
      </trkpt>
      <trkpt lat="50.4041" lon="3.42896">
        <ele>16</ele>
        <time>2016-07-31T08:40:36Z</time>
      </trkpt>
      <trkpt lat="50.40421" lon="3.42894">
        <ele>16.48</ele>
        <time>2016-07-31T08:40:44Z</time>
      </trkpt>
      <trkpt lat="50.4043" lon="3.42894">
        <ele>16.48</ele>
        <time>2016-07-31T08:40:51Z</time>
      </trkpt>
      <trkpt lat="50.40439" lon="3.42893">
        <ele>16.48</ele>
        <time>2016-07-31T08:40:58Z</time>
      </trkpt>
      <trkpt lat="50.40449" lon="3.42889">
        <ele>16.48</ele>
        <time>2016-07-31T08:41:06Z</time>
      </trkpt>
      <trkpt lat="50.40458" lon="3.42884">
        <ele>16</ele>
        <time>2016-07-31T08:41:14Z</time>
      </trkpt>
      <trkpt lat="50.40468" lon="3.42883">
        <ele>16.48</ele>
        <time>2016-07-31T08:41:23Z</time>
      </trkpt>
      <trkpt lat="50.40478" lon="3.42877">
        <ele>16.48</ele>
        <time>2016-07-31T08:41:31Z</time>
      </trkpt>
      <trkpt lat="50.40487" lon="3.42872">
        <ele>16.48</ele>
        <time>2016-07-31T08:41:38Z</time>
      </trkpt>
      <trkpt lat="50.40497" lon="3.42868">
        <ele>16</ele>
        <time>2016-07-31T08:41:46Z</time>
      </trkpt>
      <trkpt lat="50.40507" lon="3.42864">
        <ele>16</ele>
        <time>2016-07-31T08:41:54Z</time>
      </trkpt>
      <trkpt lat="50.40517" lon="3.42858">
        <ele>16.48</ele>
        <time>2016-07-31T08:42:02Z</time>
      </trkpt>
      <trkpt lat="50.40528" lon="3.42854">
        <ele>16.48</ele>
        <time>2016-07-31T08:42:10Z</time>
      </trkpt>
      <trkpt lat="50.40537" lon="3.42851">
        <ele>16</ele>
        <time>2016-07-31T08:42:17Z</time>
      </trkpt>
      <trkpt lat="50.40546" lon="3.42849">
        <ele>16.48</ele>
        <time>2016-07-31T08:42:25Z</time>
      </trkpt>
      <trkpt lat="50.40555" lon="3.42845">
        <ele>16</ele>
        <time>2016-07-31T08:42:33Z</time>
      </trkpt>
      <trkpt lat="50.40565" lon="3.42842">
        <ele>15.52</ele>
        <time>2016-07-31T08:42:41Z</time>
      </trkpt>
      <trkpt lat="50.40574" lon="3.42835">
        <ele>16</ele>
        <time>2016-07-31T08:42:49Z</time>
      </trkpt>
      <trkpt lat="50.40584" lon="3.42832">
        <ele>16</ele>
        <time>2016-07-31T08:42:56Z</time>
      </trkpt>
      <trkpt lat="50.40594" lon="3.42827">
        <ele>16</ele>
        <time>2016-07-31T08:43:05Z</time>
      </trkpt>
      <trkpt lat="50.40603" lon="3.42823">
        <ele>16.48</ele>
        <time>2016-07-31T08:43:13Z</time>
      </trkpt>
      <trkpt lat="50.40613" lon="3.42819">
        <ele>16</ele>
        <time>2016-07-31T08:43:22Z</time>
      </trkpt>
      <trkpt lat="50.40625" lon="3.42815">
        <ele>16.48</ele>
        <time>2016-07-31T08:43:30Z</time>
      </trkpt>
      <trkpt lat="50.40636" lon="3.42813">
        <ele>16</ele>
        <time>2016-07-31T08:43:39Z</time>
      </trkpt>
      <trkpt lat="50.40648" lon="3.42808">
        <ele>16.48</ele>
        <time>2016-07-31T08:43:50Z</time>
      </trkpt>
      <trkpt lat="50.40659" lon="3.42809">
        <ele>16.48</ele>
        <time>2016-07-31T08:43:58Z</time>
      </trkpt>
      <trkpt lat="50.40669" lon="3.42806">
        <ele>16.48</ele>
        <time>2016-07-31T08:44:06Z</time>
      </trkpt>
      <trkpt lat="50.4068" lon="3.42802">
        <ele>16.48</ele>
        <time>2016-07-31T08:44:15Z</time>
      </trkpt>
      <trkpt lat="50.40689" lon="3.428">
        <ele>16.48</ele>
        <time>2016-07-31T08:45:02Z</time>
      </trkpt>
      <trkpt lat="50.40701" lon="3.42793">
        <ele>16.96</ele>
        <time>2016-07-31T08:45:22Z</time>
      </trkpt>
      <trkpt lat="50.40712" lon="3.42791">
        <ele>16.48</ele>
        <time>2016-07-31T08:45:31Z</time>
      </trkpt>
      <trkpt lat="50.40724" lon="3.42788">
        <ele>16.96</ele>
        <time>2016-07-31T08:45:43Z</time>
      </trkpt>
      <trkpt lat="50.40736" lon="3.42787">
        <ele>16.96</ele>
        <time>2016-07-31T08:45:52Z</time>
      </trkpt>
      <trkpt lat="50.40745" lon="3.42789">
        <ele>16.96</ele>
        <time>2016-07-31T08:46:20Z</time>
      </trkpt>
      <trkpt lat="50.40756" lon="3.42789">
        <ele>16.96</ele>
        <time>2016-07-31T08:46:28Z</time>
      </trkpt>
      <trkpt lat="50.40766" lon="3.42788">
        <ele>16.96</ele>
        <time>2016-07-31T08:46:35Z</time>
      </trkpt>
      <trkpt lat="50.40776" lon="3.42787">
        <ele>16.96</ele>
        <time>2016-07-31T08:46:43Z</time>
      </trkpt>
      <trkpt lat="50.40787" lon="3.42783">
        <ele>16.96</ele>
        <time>2016-07-31T08:46:51Z</time>
      </trkpt>
      <trkpt lat="50.40799" lon="3.42784">
        <ele>16.96</ele>
        <time>2016-07-31T08:47:01Z</time>
      </trkpt>
      <trkpt lat="50.40809" lon="3.42784">
        <ele>16.96</ele>
        <time>2016-07-31T08:47:10Z</time>
      </trkpt>
      <trkpt lat="50.4082" lon="3.42782">
        <ele>17.44</ele>
        <time>2016-07-31T08:47:19Z</time>
      </trkpt>
      <trkpt lat="50.4083" lon="3.42783">
        <ele>17.44</ele>
        <time>2016-07-31T08:47:26Z</time>
      </trkpt>
      <trkpt lat="50.40841" lon="3.42783">
        <ele>17.44</ele>
        <time>2016-07-31T08:47:34Z</time>
      </trkpt>
      <trkpt lat="50.40853" lon="3.42781">
        <ele>17.44</ele>
        <time>2016-07-31T08:47:43Z</time>
      </trkpt>
      <trkpt lat="50.40863" lon="3.42778">
        <ele>17.92</ele>
        <time>2016-07-31T08:47:50Z</time>
      </trkpt>
      <trkpt lat="50.40875" lon="3.42777">
        <ele>17.92</ele>
        <time>2016-07-31T08:47:59Z</time>
      </trkpt>
      <trkpt lat="50.40885" lon="3.42773">
        <ele>17.44</ele>
        <time>2016-07-31T08:48:07Z</time>
      </trkpt>
      <trkpt lat="50.40893" lon="3.4276">
        <ele>18.4</ele>
        <time>2016-07-31T08:48:16Z</time>
      </trkpt>
      <trkpt lat="50.409" lon="3.42747">
        <ele>18.88</ele>
        <time>2016-07-31T08:48:25Z</time>
      </trkpt>
      <trkpt lat="50.40905" lon="3.42736">
        <ele>19.36</ele>
        <time>2016-07-31T08:48:34Z</time>
      </trkpt>
      <trkpt lat="50.40908" lon="3.42721">
        <ele>19.36</ele>
        <time>2016-07-31T08:48:41Z</time>
      </trkpt>
      <trkpt lat="50.40903" lon="3.42707">
        <ele>19.84</ele>
        <time>2016-07-31T08:48:49Z</time>
      </trkpt>
      <trkpt lat="50.40895" lon="3.42698">
        <ele>17.44</ele>
        <time>2016-07-31T08:48:58Z</time>
      </trkpt>
      <trkpt lat="50.40886" lon="3.42687">
        <ele>17.44</ele>
        <time>2016-07-31T08:49:06Z</time>
      </trkpt>
      <trkpt lat="50.40878" lon="3.42674">
        <ele>16.48</ele>
        <time>2016-07-31T08:49:15Z</time>
      </trkpt>
      <trkpt lat="50.40865" lon="3.42667">
        <ele>17.44</ele>
        <time>2016-07-31T08:49:23Z</time>
      </trkpt>
      <trkpt lat="50.40852" lon="3.42658">
        <ele>17.44</ele>
        <time>2016-07-31T08:49:33Z</time>
      </trkpt>
      <trkpt lat="50.4084" lon="3.42646">
        <ele>16.48</ele>
        <time>2016-07-31T08:49:42Z</time>
      </trkpt>
      <trkpt lat="50.40832" lon="3.42633">
        <ele>16.48</ele>
        <time>2016-07-31T08:49:52Z</time>
      </trkpt>
      <trkpt lat="50.40821" lon="3.42623">
        <ele>16.48</ele>
        <time>2016-07-31T08:50:02Z</time>
      </trkpt>
      <trkpt lat="50.4081" lon="3.42612">
        <ele>16</ele>
        <time>2016-07-31T08:50:15Z</time>
      </trkpt>
      <trkpt lat="50.40799" lon="3.42599">
        <ele>16.48</ele>
        <time>2016-07-31T08:50:26Z</time>
      </trkpt>
      <trkpt lat="50.40787" lon="3.42584">
        <ele>16</ele>
        <time>2016-07-31T08:50:37Z</time>
      </trkpt>
      <trkpt lat="50.40781" lon="3.42569">
        <ele>16</ele>
        <time>2016-07-31T08:50:47Z</time>
      </trkpt>
      <trkpt lat="50.40772" lon="3.42557">
        <ele>15.52</ele>
        <time>2016-07-31T08:50:56Z</time>
      </trkpt>
      <trkpt lat="50.40767" lon="3.42541">
        <ele>15.52</ele>
        <time>2016-07-31T08:51:04Z</time>
      </trkpt>
      <trkpt lat="50.40759" lon="3.42531">
        <ele>15.52</ele>
        <time>2016-07-31T08:51:13Z</time>
      </trkpt>
      <trkpt lat="50.4075" lon="3.42522">
        <ele>16</ele>
        <time>2016-07-31T08:51:22Z</time>
      </trkpt>
      <trkpt lat="50.40742" lon="3.42512">
        <ele>16</ele>
        <time>2016-07-31T08:51:30Z</time>
      </trkpt>
      <trkpt lat="50.40735" lon="3.425">
        <ele>16</ele>
        <time>2016-07-31T08:51:39Z</time>
      </trkpt>
      <trkpt lat="50.40736" lon="3.42482">
        <ele>16</ele>
        <time>2016-07-31T08:51:49Z</time>
      </trkpt>
      <trkpt lat="50.40742" lon="3.42463">
        <ele>16</ele>
        <time>2016-07-31T08:52:01Z</time>
      </trkpt>
      <trkpt lat="50.40748" lon="3.42442">
        <ele>16</ele>
        <time>2016-07-31T08:52:15Z</time>
      </trkpt>
      <trkpt lat="50.40753" lon="3.42419">
        <ele>15.52</ele>
        <time>2016-07-31T08:52:28Z</time>
      </trkpt>
      <trkpt lat="50.40759" lon="3.42397">
        <ele>15.52</ele>
        <time>2016-07-31T08:52:52Z</time>
      </trkpt>
      <trkpt lat="50.40769" lon="3.42365">
        <ele>15.52</ele>
        <time>2016-07-31T08:53:13Z</time>
      </trkpt>
      <trkpt lat="50.40778" lon="3.4234">
        <ele>15.04</ele>
        <time>2016-07-31T08:53:27Z</time>
      </trkpt>
      <trkpt lat="50.40785" lon="3.4233">
        <ele>15.04</ele>
        <time>2016-07-31T08:53:52Z</time>
      </trkpt>
      <trkpt lat="50.40789" lon="3.42316">
        <ele>15.04</ele>
        <time>2016-07-31T08:54:02Z</time>
      </trkpt>
      <trkpt lat="50.40793" lon="3.423">
        <ele>14.56</ele>
        <time>2016-07-31T08:54:10Z</time>
      </trkpt>
      <trkpt lat="50.40799" lon="3.42281">
        <ele>14.56</ele>
        <time>2016-07-31T08:54:20Z</time>
      </trkpt>
      <trkpt lat="50.40803" lon="3.42255">
        <ele>14.56</ele>
        <time>2016-07-31T08:54:30Z</time>
      </trkpt>
      <trkpt lat="50.40807" lon="3.42233">
        <ele>14.56</ele>
        <time>2016-07-31T08:54:40Z</time>
      </trkpt>
      <trkpt lat="50.40812" lon="3.42215">
        <ele>14.56</ele>
        <time>2016-07-31T08:54:51Z</time>
      </trkpt>
      <trkpt lat="50.40818" lon="3.42193">
        <ele>14.56</ele>
        <time>2016-07-31T08:55:05Z</time>
      </trkpt>
      <trkpt lat="50.40822" lon="3.42177">
        <ele>14.56</ele>
        <time>2016-07-31T08:55:15Z</time>
      </trkpt>
      <trkpt lat="50.40826" lon="3.42159">
        <ele>14.08</ele>
        <time>2016-07-31T08:55:23Z</time>
      </trkpt>
      <trkpt lat="50.40829" lon="3.42144">
        <ele>14.08</ele>
        <time>2016-07-31T08:55:37Z</time>
      </trkpt>
      <trkpt lat="50.40834" lon="3.42131">
        <ele>14.56</ele>
        <time>2016-07-31T08:55:46Z</time>
      </trkpt>
      <trkpt lat="50.4084" lon="3.42116">
        <ele>14.56</ele>
        <time>2016-07-31T08:55:54Z</time>
      </trkpt>
      <trkpt lat="50.40844" lon="3.42091">
        <ele>14.56</ele>
        <time>2016-07-31T08:56:04Z</time>
      </trkpt>
      <trkpt lat="50.4085" lon="3.42073">
        <ele>15.04</ele>
        <time>2016-07-31T08:56:14Z</time>
      </trkpt>
      <trkpt lat="50.40857" lon="3.42051">
        <ele>15.04</ele>
        <time>2016-07-31T08:56:25Z</time>
      </trkpt>
      <trkpt lat="50.40864" lon="3.42025">
        <ele>14.56</ele>
        <time>2016-07-31T08:56:37Z</time>
      </trkpt>
      <trkpt lat="50.4087" lon="3.4201">
        <ele>14.56</ele>
        <time>2016-07-31T08:57:00Z</time>
      </trkpt>
      <trkpt lat="50.40876" lon="3.41991">
        <ele>14.56</ele>
        <time>2016-07-31T08:57:18Z</time>
      </trkpt>
      <trkpt lat="50.4088" lon="3.41971">
        <ele>14.08</ele>
        <time>2016-07-31T08:57:29Z</time>
      </trkpt>
      <trkpt lat="50.40887" lon="3.41951">
        <ele>14.08</ele>
        <time>2016-07-31T08:57:39Z</time>
      </trkpt>
      <trkpt lat="50.40893" lon="3.41936">
        <ele>13.12</ele>
        <time>2016-07-31T08:57:48Z</time>
      </trkpt>
      <trkpt lat="50.40899" lon="3.41915">
        <ele>13.6</ele>
        <time>2016-07-31T08:57:58Z</time>
      </trkpt>
      <trkpt lat="50.40905" lon="3.41893">
        <ele>13.6</ele>
        <time>2016-07-31T08:58:08Z</time>
      </trkpt>
      <trkpt lat="50.4091" lon="3.41875">
        <ele>13.6</ele>
        <time>2016-07-31T08:58:17Z</time>
      </trkpt>
      <trkpt lat="50.40915" lon="3.41862">
        <ele>13.6</ele>
        <time>2016-07-31T08:58:25Z</time>
      </trkpt>
      <trkpt lat="50.40918" lon="3.41841">
        <ele>13.12</ele>
        <time>2016-07-31T08:58:43Z</time>
      </trkpt>
      <trkpt lat="50.40924" lon="3.41821">
        <ele>13.12</ele>
        <time>2016-07-31T08:58:53Z</time>
      </trkpt>
      <trkpt lat="50.4093" lon="3.41805">
        <ele>12.63</ele>
        <time>2016-07-31T08:59:02Z</time>
      </trkpt>
      <trkpt lat="50.40937" lon="3.41792">
        <ele>12.63</ele>
        <time>2016-07-31T08:59:11Z</time>
      </trkpt>
      <trkpt lat="50.40942" lon="3.41776">
        <ele>12.63</ele>
        <time>2016-07-31T08:59:20Z</time>
      </trkpt>
      <trkpt lat="50.40948" lon="3.4176">
        <ele>12.15</ele>
        <time>2016-07-31T08:59:29Z</time>
      </trkpt>
      <trkpt lat="50.4095" lon="3.41743">
        <ele>12.63</ele>
        <time>2016-07-31T08:59:39Z</time>
      </trkpt>
      <trkpt lat="50.40947" lon="3.4173">
        <ele>11.19</ele>
        <time>2016-07-31T08:59:52Z</time>
      </trkpt>
      <trkpt lat="50.40936" lon="3.41692">
        <ele>11.67</ele>
        <time>2016-07-31T09:00:27Z</time>
      </trkpt>
      <trkpt lat="50.40929" lon="3.41679">
        <ele>11.19</ele>
        <time>2016-07-31T09:00:34Z</time>
      </trkpt>
      <trkpt lat="50.40921" lon="3.41669">
        <ele>11.19</ele>
        <time>2016-07-31T09:00:43Z</time>
      </trkpt>
      <trkpt lat="50.40912" lon="3.41659">
        <ele>11.67</ele>
        <time>2016-07-31T09:00:52Z</time>
      </trkpt>
      <trkpt lat="50.40903" lon="3.41648">
        <ele>11.19</ele>
        <time>2016-07-31T09:01:01Z</time>
      </trkpt>
      <trkpt lat="50.40893" lon="3.41637">
        <ele>11.67</ele>
        <time>2016-07-31T09:01:09Z</time>
      </trkpt>
      <trkpt lat="50.40885" lon="3.41626">
        <ele>11.67</ele>
        <time>2016-07-31T09:01:17Z</time>
      </trkpt>
      <trkpt lat="50.40878" lon="3.41615">
        <ele>11.67</ele>
        <time>2016-07-31T09:01:25Z</time>
      </trkpt>
      <trkpt lat="50.4087" lon="3.41605">
        <ele>11.67</ele>
        <time>2016-07-31T09:01:33Z</time>
      </trkpt>
      <trkpt lat="50.40863" lon="3.41592">
        <ele>11.67</ele>
        <time>2016-07-31T09:01:42Z</time>
      </trkpt>
      <trkpt lat="50.40855" lon="3.41581">
        <ele>11.67</ele>
        <time>2016-07-31T09:01:50Z</time>
      </trkpt>
      <trkpt lat="50.40848" lon="3.41569">
        <ele>11.19</ele>
        <time>2016-07-31T09:01:58Z</time>
      </trkpt>
      <trkpt lat="50.40841" lon="3.41556">
        <ele>11.67</ele>
        <time>2016-07-31T09:02:07Z</time>
      </trkpt>
      <trkpt lat="50.40833" lon="3.41545">
        <ele>11.67</ele>
        <time>2016-07-31T09:02:15Z</time>
      </trkpt>
      <trkpt lat="50.40824" lon="3.41535">
        <ele>11.67</ele>
        <time>2016-07-31T09:02:23Z</time>
      </trkpt>
      <trkpt lat="50.40817" lon="3.41524">
        <ele>11.67</ele>
        <time>2016-07-31T09:02:31Z</time>
      </trkpt>
      <trkpt lat="50.40807" lon="3.41515">
        <ele>11.67</ele>
        <time>2016-07-31T09:02:39Z</time>
      </trkpt>
      <trkpt lat="50.40799" lon="3.41505">
        <ele>11.67</ele>
        <time>2016-07-31T09:02:47Z</time>
      </trkpt>
      <trkpt lat="50.40791" lon="3.41492">
        <ele>11.67</ele>
        <time>2016-07-31T09:02:56Z</time>
      </trkpt>
      <trkpt lat="50.40786" lon="3.41481">
        <ele>11.67</ele>
        <time>2016-07-31T09:03:04Z</time>
      </trkpt>
      <trkpt lat="50.40777" lon="3.41469">
        <ele>11.67</ele>
        <time>2016-07-31T09:03:12Z</time>
      </trkpt>
      <trkpt lat="50.4077" lon="3.41457">
        <ele>11.67</ele>
        <time>2016-07-31T09:03:20Z</time>
      </trkpt>
      <trkpt lat="50.40761" lon="3.41448">
        <ele>11.67</ele>
        <time>2016-07-31T09:03:28Z</time>
      </trkpt>
      <trkpt lat="50.40752" lon="3.41438">
        <ele>11.67</ele>
        <time>2016-07-31T09:03:36Z</time>
      </trkpt>
      <trkpt lat="50.40742" lon="3.41433">
        <ele>11.67</ele>
        <time>2016-07-31T09:03:44Z</time>
      </trkpt>
      <trkpt lat="50.40734" lon="3.41419">
        <ele>11.67</ele>
        <time>2016-07-31T09:03:53Z</time>
      </trkpt>
      <trkpt lat="50.40726" lon="3.4141">
        <ele>11.67</ele>
        <time>2016-07-31T09:04:00Z</time>
      </trkpt>
      <trkpt lat="50.40719" lon="3.41397">
        <ele>11.67</ele>
        <time>2016-07-31T09:04:09Z</time>
      </trkpt>
      <trkpt lat="50.40712" lon="3.41384">
        <ele>11.67</ele>
        <time>2016-07-31T09:04:17Z</time>
      </trkpt>
      <trkpt lat="50.40705" lon="3.41375">
        <ele>11.67</ele>
        <time>2016-07-31T09:04:25Z</time>
      </trkpt>
      <trkpt lat="50.40695" lon="3.41369">
        <ele>11.67</ele>
        <time>2016-07-31T09:04:33Z</time>
      </trkpt>
      <trkpt lat="50.40686" lon="3.4136">
        <ele>11.67</ele>
        <time>2016-07-31T09:04:40Z</time>
      </trkpt>
      <trkpt lat="50.40679" lon="3.41348">
        <ele>11.67</ele>
        <time>2016-07-31T09:04:48Z</time>
      </trkpt>
      <trkpt lat="50.4067" lon="3.41336">
        <ele>12.15</ele>
        <time>2016-07-31T09:04:57Z</time>
      </trkpt>
      <trkpt lat="50.40663" lon="3.41325">
        <ele>11.67</ele>
        <time>2016-07-31T09:05:05Z</time>
      </trkpt>
      <trkpt lat="50.40654" lon="3.41313">
        <ele>12.15</ele>
        <time>2016-07-31T09:05:13Z</time>
      </trkpt>
      <trkpt lat="50.40646" lon="3.41302">
        <ele>11.67</ele>
        <time>2016-07-31T09:05:21Z</time>
      </trkpt>
      <trkpt lat="50.40639" lon="3.41289">
        <ele>12.15</ele>
        <time>2016-07-31T09:05:30Z</time>
      </trkpt>
      <trkpt lat="50.40632" lon="3.41276">
        <ele>12.15</ele>
        <time>2016-07-31T09:05:40Z</time>
      </trkpt>
      <trkpt lat="50.40622" lon="3.41264">
        <ele>11.67</ele>
        <time>2016-07-31T09:05:49Z</time>
      </trkpt>
      <trkpt lat="50.40614" lon="3.41257">
        <ele>12.15</ele>
        <time>2016-07-31T09:05:57Z</time>
      </trkpt>
      <trkpt lat="50.40606" lon="3.41246">
        <ele>12.15</ele>
        <time>2016-07-31T09:06:06Z</time>
      </trkpt>
      <trkpt lat="50.40597" lon="3.41235">
        <ele>12.15</ele>
        <time>2016-07-31T09:06:14Z</time>
      </trkpt>
      <trkpt lat="50.40589" lon="3.41218">
        <ele>12.15</ele>
        <time>2016-07-31T09:06:25Z</time>
      </trkpt>
      <trkpt lat="50.40579" lon="3.41206">
        <ele>12.15</ele>
        <time>2016-07-31T09:06:35Z</time>
      </trkpt>
      <trkpt lat="50.4057" lon="3.41195">
        <ele>12.15</ele>
        <time>2016-07-31T09:06:43Z</time>
      </trkpt>
      <trkpt lat="50.40564" lon="3.41177">
        <ele>12.15</ele>
        <time>2016-07-31T09:06:53Z</time>
      </trkpt>
      <trkpt lat="50.40553" lon="3.41166">
        <ele>12.15</ele>
        <time>2016-07-31T09:07:02Z</time>
      </trkpt>
      <trkpt lat="50.40544" lon="3.41156">
        <ele>12.15</ele>
        <time>2016-07-31T09:07:10Z</time>
      </trkpt>
      <trkpt lat="50.40536" lon="3.41143">
        <ele>12.15</ele>
        <time>2016-07-31T09:07:19Z</time>
      </trkpt>
      <trkpt lat="50.40528" lon="3.41133">
        <ele>12.63</ele>
        <time>2016-07-31T09:07:27Z</time>
      </trkpt>
      <trkpt lat="50.40522" lon="3.41124">
        <ele>12.63</ele>
        <time>2016-07-31T09:07:35Z</time>
      </trkpt>
      <trkpt lat="50.40514" lon="3.41112">
        <ele>12.63</ele>
        <time>2016-07-31T09:07:44Z</time>
      </trkpt>
      <trkpt lat="50.40505" lon="3.41103">
        <ele>12.63</ele>
        <time>2016-07-31T09:07:52Z</time>
      </trkpt>
      <trkpt lat="50.40497" lon="3.41094">
        <ele>12.63</ele>
        <time>2016-07-31T09:08:01Z</time>
      </trkpt>
      <trkpt lat="50.40488" lon="3.41085">
        <ele>12.63</ele>
        <time>2016-07-31T09:08:10Z</time>
      </trkpt>
      <trkpt lat="50.40479" lon="3.41068">
        <ele>12.63</ele>
        <time>2016-07-31T09:08:19Z</time>
      </trkpt>
      <trkpt lat="50.40474" lon="3.41052">
        <ele>12.63</ele>
        <time>2016-07-31T09:08:28Z</time>
      </trkpt>
      <trkpt lat="50.40464" lon="3.41041">
        <ele>12.63</ele>
        <time>2016-07-31T09:08:36Z</time>
      </trkpt>
      <trkpt lat="50.40455" lon="3.41028">
        <ele>13.12</ele>
        <time>2016-07-31T09:08:45Z</time>
      </trkpt>
      <trkpt lat="50.40449" lon="3.41016">
        <ele>13.6</ele>
        <time>2016-07-31T09:08:54Z</time>
      </trkpt>
      <trkpt lat="50.40442" lon="3.41001">
        <ele>14.08</ele>
        <time>2016-07-31T09:09:05Z</time>
      </trkpt>
      <trkpt lat="50.40433" lon="3.40992">
        <ele>14.56</ele>
        <time>2016-07-31T09:09:12Z</time>
      </trkpt>
      <trkpt lat="50.4042" lon="3.40986">
        <ele>14.56</ele>
        <time>2016-07-31T09:09:20Z</time>
      </trkpt>
      <trkpt lat="50.40411" lon="3.40975">
        <ele>14.08</ele>
        <time>2016-07-31T09:09:29Z</time>
      </trkpt>
      <trkpt lat="50.40405" lon="3.40961">
        <ele>14.56</ele>
        <time>2016-07-31T09:09:37Z</time>
      </trkpt>
      <trkpt lat="50.40396" lon="3.40953">
        <ele>14.56</ele>
        <time>2016-07-31T09:09:44Z</time>
      </trkpt>
      <trkpt lat="50.40389" lon="3.4094">
        <ele>14.08</ele>
        <time>2016-07-31T09:09:52Z</time>
      </trkpt>
      <trkpt lat="50.40383" lon="3.40927">
        <ele>14.56</ele>
        <time>2016-07-31T09:10:01Z</time>
      </trkpt>
      <trkpt lat="50.40374" lon="3.40918">
        <ele>14.56</ele>
        <time>2016-07-31T09:10:09Z</time>
      </trkpt>
      <trkpt lat="50.40367" lon="3.40905">
        <ele>14.56</ele>
        <time>2016-07-31T09:10:17Z</time>
      </trkpt>
      <trkpt lat="50.4036" lon="3.40893">
        <ele>14.08</ele>
        <time>2016-07-31T09:10:25Z</time>
      </trkpt>
      <trkpt lat="50.40353" lon="3.40879">
        <ele>14.08</ele>
        <time>2016-07-31T09:10:34Z</time>
      </trkpt>
      <trkpt lat="50.40347" lon="3.40865">
        <ele>13.6</ele>
        <time>2016-07-31T09:10:42Z</time>
      </trkpt>
      <trkpt lat="50.40339" lon="3.40852">
        <ele>14.08</ele>
        <time>2016-07-31T09:10:51Z</time>
      </trkpt>
      <trkpt lat="50.4033" lon="3.40844">
        <ele>14.08</ele>
        <time>2016-07-31T09:11:01Z</time>
      </trkpt>
      <trkpt lat="50.40333" lon="3.40845">
        <ele>13.6</ele>
        <time>2016-07-31T09:12:27Z</time>
      </trkpt>
      <trkpt lat="50.40319" lon="3.40857">
        <ele>14.08</ele>
        <time>2016-07-31T09:12:44Z</time>
      </trkpt>
      <trkpt lat="50.40309" lon="3.40868">
        <ele>14.08</ele>
        <time>2016-07-31T09:12:56Z</time>
      </trkpt>
      <trkpt lat="50.40299" lon="3.40882">
        <ele>14.08</ele>
        <time>2016-07-31T09:13:11Z</time>
      </trkpt>
      <trkpt lat="50.40288" lon="3.40893">
        <ele>14.08</ele>
        <time>2016-07-31T09:13:22Z</time>
      </trkpt>
      <trkpt lat="50.40277" lon="3.40904">
        <ele>14.56</ele>
        <time>2016-07-31T09:13:33Z</time>
      </trkpt>
      <trkpt lat="50.40265" lon="3.40917">
        <ele>14.56</ele>
        <time>2016-07-31T09:13:48Z</time>
      </trkpt>
      <trkpt lat="50.40252" lon="3.4093">
        <ele>14.56</ele>
        <time>2016-07-31T09:14:02Z</time>
      </trkpt>
      <trkpt lat="50.4024" lon="3.40938">
        <ele>14.56</ele>
        <time>2016-07-31T09:14:11Z</time>
      </trkpt>
      <trkpt lat="50.40227" lon="3.40951">
        <ele>15.04</ele>
        <time>2016-07-31T09:14:24Z</time>
      </trkpt>
      <trkpt lat="50.40211" lon="3.40965">
        <ele>15.04</ele>
        <time>2016-07-31T09:14:40Z</time>
      </trkpt>
      <trkpt lat="50.40198" lon="3.40977">
        <ele>15.04</ele>
        <time>2016-07-31T09:14:51Z</time>
      </trkpt>
      <trkpt lat="50.40185" lon="3.40987">
        <ele>15.52</ele>
        <time>2016-07-31T09:15:03Z</time>
      </trkpt>
      <trkpt lat="50.40175" lon="3.40996">
        <ele>15.04</ele>
        <time>2016-07-31T09:15:11Z</time>
      </trkpt>
      <trkpt lat="50.40165" lon="3.41007">
        <ele>15.04</ele>
        <time>2016-07-31T09:15:20Z</time>
      </trkpt>
      <trkpt lat="50.40157" lon="3.41014">
        <ele>15.04</ele>
        <time>2016-07-31T09:15:28Z</time>
      </trkpt>
      <trkpt lat="50.40146" lon="3.41026">
        <ele>15.04</ele>
        <time>2016-07-31T09:15:40Z</time>
      </trkpt>
      <trkpt lat="50.40137" lon="3.41033">
        <ele>15.04</ele>
        <time>2016-07-31T09:15:47Z</time>
      </trkpt>
      <trkpt lat="50.40128" lon="3.41047">
        <ele>14.56</ele>
        <time>2016-07-31T09:15:58Z</time>
      </trkpt>
      <trkpt lat="50.40117" lon="3.4106">
        <ele>14.56</ele>
        <time>2016-07-31T09:16:13Z</time>
      </trkpt>
      <trkpt lat="50.40107" lon="3.4107">
        <ele>14.56</ele>
        <time>2016-07-31T09:16:26Z</time>
      </trkpt>
      <trkpt lat="50.40096" lon="3.4108">
        <ele>14.56</ele>
        <time>2016-07-31T09:16:37Z</time>
      </trkpt>
      <trkpt lat="50.40083" lon="3.41093">
        <ele>15.04</ele>
        <time>2016-07-31T09:16:53Z</time>
      </trkpt>
      <trkpt lat="50.4007" lon="3.4111">
        <ele>14.56</ele>
        <time>2016-07-31T09:17:07Z</time>
      </trkpt>
      <trkpt lat="50.40059" lon="3.41121">
        <ele>14.56</ele>
        <time>2016-07-31T09:17:17Z</time>
      </trkpt>
      <trkpt lat="50.40047" lon="3.41135">
        <ele>14.56</ele>
        <time>2016-07-31T09:17:28Z</time>
      </trkpt>
      <trkpt lat="50.40037" lon="3.41146">
        <ele>14.08</ele>
        <time>2016-07-31T09:17:37Z</time>
      </trkpt>
      <trkpt lat="50.40025" lon="3.41158">
        <ele>14.08</ele>
        <time>2016-07-31T09:17:45Z</time>
      </trkpt>
      <trkpt lat="50.40014" lon="3.41168">
        <ele>14.56</ele>
        <time>2016-07-31T09:17:52Z</time>
      </trkpt>
      <trkpt lat="50.40005" lon="3.41176">
        <ele>15.04</ele>
        <time>2016-07-31T09:18:00Z</time>
      </trkpt>
      <trkpt lat="50.39998" lon="3.41188">
        <ele>14.56</ele>
        <time>2016-07-31T09:18:18Z</time>
      </trkpt>
      <trkpt lat="50.39987" lon="3.41199">
        <ele>15.04</ele>
        <time>2016-07-31T09:18:26Z</time>
      </trkpt>
      <trkpt lat="50.39974" lon="3.41209">
        <ele>15.04</ele>
        <time>2016-07-31T09:18:33Z</time>
      </trkpt>
      <trkpt lat="50.39965" lon="3.41217">
        <ele>14.56</ele>
        <time>2016-07-31T09:18:40Z</time>
      </trkpt>
      <trkpt lat="50.39958" lon="3.41228">
        <ele>15.04</ele>
        <time>2016-07-31T09:18:52Z</time>
      </trkpt>
      <trkpt lat="50.39949" lon="3.41239">
        <ele>14.56</ele>
        <time>2016-07-31T09:19:04Z</time>
      </trkpt>
      <trkpt lat="50.39935" lon="3.4125">
        <ele>14.56</ele>
        <time>2016-07-31T09:19:18Z</time>
      </trkpt>
      <trkpt lat="50.39924" lon="3.41256">
        <ele>15.04</ele>
        <time>2016-07-31T09:19:28Z</time>
      </trkpt>
      <trkpt lat="50.39914" lon="3.41264">
        <ele>14.56</ele>
        <time>2016-07-31T09:19:38Z</time>
      </trkpt>
      <trkpt lat="50.39904" lon="3.41276">
        <ele>14.56</ele>
        <time>2016-07-31T09:19:46Z</time>
      </trkpt>
      <trkpt lat="50.39893" lon="3.41289">
        <ele>14.56</ele>
        <time>2016-07-31T09:19:56Z</time>
      </trkpt>
      <trkpt lat="50.39881" lon="3.41303">
        <ele>14.08</ele>
        <time>2016-07-31T09:20:09Z</time>
      </trkpt>
      <trkpt lat="50.39871" lon="3.41316">
        <ele>14.56</ele>
        <time>2016-07-31T09:20:20Z</time>
      </trkpt>
      <trkpt lat="50.39861" lon="3.41329">
        <ele>14.08</ele>
        <time>2016-07-31T09:20:31Z</time>
      </trkpt>
      <trkpt lat="50.39851" lon="3.4134">
        <ele>14.56</ele>
        <time>2016-07-31T09:20:40Z</time>
      </trkpt>
      <trkpt lat="50.39842" lon="3.41351">
        <ele>14.08</ele>
        <time>2016-07-31T09:20:51Z</time>
      </trkpt>
      <trkpt lat="50.3983" lon="3.41361">
        <ele>14.56</ele>
        <time>2016-07-31T09:21:00Z</time>
      </trkpt>
      <trkpt lat="50.3982" lon="3.41371">
        <ele>13.6</ele>
        <time>2016-07-31T09:21:11Z</time>
      </trkpt>
      <trkpt lat="50.39808" lon="3.41381">
        <ele>13.6</ele>
        <time>2016-07-31T09:21:20Z</time>
      </trkpt>
      <trkpt lat="50.39798" lon="3.41391">
        <ele>14.08</ele>
        <time>2016-07-31T09:21:28Z</time>
      </trkpt>
      <trkpt lat="50.39789" lon="3.41402">
        <ele>13.6</ele>
        <time>2016-07-31T09:21:38Z</time>
      </trkpt>
      <trkpt lat="50.39777" lon="3.4142">
        <ele>14.08</ele>
        <time>2016-07-31T09:21:53Z</time>
      </trkpt>
      <trkpt lat="50.39766" lon="3.4143">
        <ele>13.6</ele>
        <time>2016-07-31T09:22:04Z</time>
      </trkpt>
      <trkpt lat="50.39754" lon="3.41439">
        <ele>13.6</ele>
        <time>2016-07-31T09:22:14Z</time>
      </trkpt>
      <trkpt lat="50.39744" lon="3.41449">
        <ele>13.6</ele>
        <time>2016-07-31T09:22:20Z</time>
      </trkpt>
      <trkpt lat="50.39732" lon="3.4146">
        <ele>13.6</ele>
        <time>2016-07-31T09:22:31Z</time>
      </trkpt>
      <trkpt lat="50.39726" lon="3.41469">
        <ele>13.12</ele>
        <time>2016-07-31T09:22:39Z</time>
      </trkpt>
      <trkpt lat="50.39719" lon="3.41478">
        <ele>13.6</ele>
        <time>2016-07-31T09:22:48Z</time>
      </trkpt>
      <trkpt lat="50.39709" lon="3.41486">
        <ele>13.6</ele>
        <time>2016-07-31T09:22:57Z</time>
      </trkpt>
      <trkpt lat="50.39695" lon="3.41504">
        <ele>13.6</ele>
        <time>2016-07-31T09:23:14Z</time>
      </trkpt>
      <trkpt lat="50.39685" lon="3.41519">
        <ele>13.6</ele>
        <time>2016-07-31T09:23:26Z</time>
      </trkpt>
      <trkpt lat="50.39675" lon="3.41532">
        <ele>13.6</ele>
        <time>2016-07-31T09:23:41Z</time>
      </trkpt>
      <trkpt lat="50.39663" lon="3.41544">
        <ele>14.08</ele>
        <time>2016-07-31T09:23:52Z</time>
      </trkpt>
      <trkpt lat="50.39651" lon="3.41558">
        <ele>14.08</ele>
        <time>2016-07-31T09:24:01Z</time>
      </trkpt>
      <trkpt lat="50.3964" lon="3.41568">
        <ele>14.08</ele>
        <time>2016-07-31T09:24:09Z</time>
      </trkpt>
      <trkpt lat="50.39627" lon="3.41578">
        <ele>14.08</ele>
        <time>2016-07-31T09:24:22Z</time>
      </trkpt>
      <trkpt lat="50.39617" lon="3.41586">
        <ele>14.08</ele>
        <time>2016-07-31T09:24:31Z</time>
      </trkpt>
      <trkpt lat="50.39606" lon="3.41597">
        <ele>14.56</ele>
        <time>2016-07-31T09:24:42Z</time>
      </trkpt>
      <trkpt lat="50.39595" lon="3.41609">
        <ele>14.08</ele>
        <time>2016-07-31T09:24:52Z</time>
      </trkpt>
      <trkpt lat="50.39581" lon="3.41617">
        <ele>14.08</ele>
        <time>2016-07-31T09:25:03Z</time>
      </trkpt>
      <trkpt lat="50.3957" lon="3.41629">
        <ele>13.6</ele>
        <time>2016-07-31T09:25:12Z</time>
      </trkpt>
      <trkpt lat="50.39558" lon="3.41643">
        <ele>14.08</ele>
        <time>2016-07-31T09:25:24Z</time>
      </trkpt>
      <trkpt lat="50.39547" lon="3.41655">
        <ele>14.08</ele>
        <time>2016-07-31T09:25:36Z</time>
      </trkpt>
      <trkpt lat="50.39533" lon="3.41672">
        <ele>14.08</ele>
        <time>2016-07-31T09:25:52Z</time>
      </trkpt>
      <trkpt lat="50.39521" lon="3.41683">
        <ele>14.08</ele>
        <time>2016-07-31T09:26:02Z</time>
      </trkpt>
      <trkpt lat="50.39511" lon="3.41693">
        <ele>13.6</ele>
        <time>2016-07-31T09:26:12Z</time>
      </trkpt>
      <trkpt lat="50.395" lon="3.41704">
        <ele>13.6</ele>
        <time>2016-07-31T09:26:22Z</time>
      </trkpt>
      <trkpt lat="50.3949" lon="3.41717">
        <ele>13.6</ele>
        <time>2016-07-31T09:26:34Z</time>
      </trkpt>
      <trkpt lat="50.3948" lon="3.41728">
        <ele>13.6</ele>
        <time>2016-07-31T09:26:45Z</time>
      </trkpt>
      <trkpt lat="50.3947" lon="3.4174">
        <ele>13.6</ele>
        <time>2016-07-31T09:26:54Z</time>
      </trkpt>
      <trkpt lat="50.39457" lon="3.41754">
        <ele>13.12</ele>
        <time>2016-07-31T09:27:07Z</time>
      </trkpt>
      <trkpt lat="50.39445" lon="3.41766">
        <ele>13.6</ele>
        <time>2016-07-31T09:27:17Z</time>
      </trkpt>
      <trkpt lat="50.39437" lon="3.41778">
        <ele>13.12</ele>
        <time>2016-07-31T09:27:28Z</time>
      </trkpt>
      <trkpt lat="50.39424" lon="3.4179">
        <ele>13.12</ele>
        <time>2016-07-31T09:27:41Z</time>
      </trkpt>
      <trkpt lat="50.39415" lon="3.418">
        <ele>13.12</ele>
        <time>2016-07-31T09:27:49Z</time>
      </trkpt>
      <trkpt lat="50.39403" lon="3.41813">
        <ele>12.63</ele>
        <time>2016-07-31T09:28:00Z</time>
      </trkpt>
      <trkpt lat="50.39395" lon="3.41822">
        <ele>13.12</ele>
        <time>2016-07-31T09:28:08Z</time>
      </trkpt>
      <trkpt lat="50.39386" lon="3.41832">
        <ele>13.12</ele>
        <time>2016-07-31T09:28:16Z</time>
      </trkpt>
      <trkpt lat="50.39377" lon="3.4184">
        <ele>12.63</ele>
        <time>2016-07-31T09:28:26Z</time>
      </trkpt>
      <trkpt lat="50.39365" lon="3.41851">
        <ele>13.12</ele>
        <time>2016-07-31T09:28:38Z</time>
      </trkpt>
      <trkpt lat="50.39353" lon="3.41864">
        <ele>12.63</ele>
        <time>2016-07-31T09:28:50Z</time>
      </trkpt>
      <trkpt lat="50.39338" lon="3.4188">
        <ele>13.12</ele>
        <time>2016-07-31T09:29:04Z</time>
      </trkpt>
      <trkpt lat="50.39321" lon="3.41895">
        <ele>13.12</ele>
        <time>2016-07-31T09:29:23Z</time>
      </trkpt>
      <trkpt lat="50.39311" lon="3.41904">
        <ele>13.6</ele>
        <time>2016-07-31T09:29:42Z</time>
      </trkpt>
      <trkpt lat="50.39296" lon="3.4192">
        <ele>13.6</ele>
        <time>2016-07-31T09:29:55Z</time>
      </trkpt>
      <trkpt lat="50.39285" lon="3.41931">
        <ele>13.6</ele>
        <time>2016-07-31T09:30:05Z</time>
      </trkpt>
      <trkpt lat="50.39273" lon="3.41942">
        <ele>14.08</ele>
        <time>2016-07-31T09:30:16Z</time>
      </trkpt>
      <trkpt lat="50.39263" lon="3.41954">
        <ele>14.08</ele>
        <time>2016-07-31T09:30:25Z</time>
      </trkpt>
      <trkpt lat="50.39252" lon="3.41962">
        <ele>14.56</ele>
        <time>2016-07-31T09:30:36Z</time>
      </trkpt>
      <trkpt lat="50.39242" lon="3.41975">
        <ele>14.56</ele>
        <time>2016-07-31T09:30:49Z</time>
      </trkpt>
      <trkpt lat="50.39228" lon="3.41987">
        <ele>14.56</ele>
        <time>2016-07-31T09:31:01Z</time>
      </trkpt>
      <trkpt lat="50.39212" lon="3.41999">
        <ele>14.08</ele>
        <time>2016-07-31T09:31:14Z</time>
      </trkpt>
      <trkpt lat="50.39203" lon="3.4201">
        <ele>14.56</ele>
        <time>2016-07-31T09:31:24Z</time>
      </trkpt>
      <trkpt lat="50.39186" lon="3.42029">
        <ele>14.56</ele>
        <time>2016-07-31T09:31:43Z</time>
      </trkpt>
      <trkpt lat="50.39173" lon="3.42048">
        <ele>15.04</ele>
        <time>2016-07-31T09:31:58Z</time>
      </trkpt>
      <trkpt lat="50.3916" lon="3.42063">
        <ele>15.52</ele>
        <time>2016-07-31T09:32:12Z</time>
      </trkpt>
      <trkpt lat="50.39148" lon="3.42072">
        <ele>15.52</ele>
        <time>2016-07-31T09:32:23Z</time>
      </trkpt>
      <trkpt lat="50.39136" lon="3.42084">
        <ele>16</ele>
        <time>2016-07-31T09:32:33Z</time>
      </trkpt>
      <trkpt lat="50.39124" lon="3.42095">
        <ele>16</ele>
        <time>2016-07-31T09:32:47Z</time>
      </trkpt>
      <trkpt lat="50.39112" lon="3.42107">
        <ele>16.48</ele>
        <time>2016-07-31T09:32:58Z</time>
      </trkpt>
      <trkpt lat="50.39102" lon="3.4212">
        <ele>17.44</ele>
        <time>2016-07-31T09:33:09Z</time>
      </trkpt>
      <trkpt lat="50.39088" lon="3.42132">
        <ele>17.44</ele>
        <time>2016-07-31T09:33:22Z</time>
      </trkpt>
      <trkpt lat="50.39073" lon="3.42145">
        <ele>17.92</ele>
        <time>2016-07-31T09:33:37Z</time>
      </trkpt>
      <trkpt lat="50.39062" lon="3.4216">
        <ele>18.4</ele>
        <time>2016-07-31T09:33:50Z</time>
      </trkpt>
      <trkpt lat="50.3905" lon="3.42172">
        <ele>18.88</ele>
        <time>2016-07-31T09:34:03Z</time>
      </trkpt>
      <trkpt lat="50.39035" lon="3.4219">
        <ele>19.84</ele>
        <time>2016-07-31T09:34:23Z</time>
      </trkpt>
      <trkpt lat="50.39016" lon="3.42211">
        <ele>20.32</ele>
        <time>2016-07-31T09:34:43Z</time>
      </trkpt>
      <trkpt lat="50.39005" lon="3.42229">
        <ele>21.29</ele>
        <time>2016-07-31T09:34:59Z</time>
      </trkpt>
      <trkpt lat="50.38992" lon="3.42238">
        <ele>21.77</ele>
        <time>2016-07-31T09:35:11Z</time>
      </trkpt>
      <trkpt lat="50.38974" lon="3.42255">
        <ele>22.25</ele>
        <time>2016-07-31T09:35:24Z</time>
      </trkpt>
      <trkpt lat="50.38962" lon="3.42267">
        <ele>21.77</ele>
        <time>2016-07-31T09:35:34Z</time>
      </trkpt>
      <trkpt lat="50.38953" lon="3.42275">
        <ele>22.25</ele>
        <time>2016-07-31T09:35:42Z</time>
      </trkpt>
      <trkpt lat="50.38942" lon="3.42286">
        <ele>23.21</ele>
        <time>2016-07-31T09:35:54Z</time>
      </trkpt>
      <trkpt lat="50.38924" lon="3.423">
        <ele>23.21</ele>
        <time>2016-07-31T09:36:14Z</time>
      </trkpt>
      <trkpt lat="50.38917" lon="3.42313">
        <ele>23.69</ele>
        <time>2016-07-31T09:36:44Z</time>
      </trkpt>
      <trkpt lat="50.38903" lon="3.42326">
        <ele>24.17</ele>
        <time>2016-07-31T09:36:55Z</time>
      </trkpt>
      <trkpt lat="50.38891" lon="3.42338">
        <ele>24.65</ele>
        <time>2016-07-31T09:37:05Z</time>
      </trkpt>
      <trkpt lat="50.38878" lon="3.42352">
        <ele>24.65</ele>
        <time>2016-07-31T09:37:16Z</time>
      </trkpt>
      <trkpt lat="50.38869" lon="3.42364">
        <ele>24.65</ele>
        <time>2016-07-31T09:37:28Z</time>
      </trkpt>
      <trkpt lat="50.38859" lon="3.42378">
        <ele>25.13</ele>
        <time>2016-07-31T09:37:38Z</time>
      </trkpt>
      <trkpt lat="50.38851" lon="3.42388">
        <ele>25.61</ele>
        <time>2016-07-31T09:37:47Z</time>
      </trkpt>
      <trkpt lat="50.38837" lon="3.42391">
        <ele>26.09</ele>
        <time>2016-07-31T09:38:00Z</time>
      </trkpt>
    </trkseg>
  </trk>
</gpx>